<?xml version="1.0" encoding="UTF-8" standalone="no" ?>
<gpx xmlns="http://www.topografix.com/GPX/1/1" xmlns:xsi="http://www.w3.org/2001/XMLSchema-instance" xsi:schemaLocation="http://www.topografix.com/GPX/1/1 http://www.topografix.com/GPX/1/1/gpx.xsd" version="1.1" creator="VisuGPX - https://www.visugpx.com">
  <metadata>
    <name>Lozeron N3 170222</name>
  </metadata>
  <trk>
    <name><![CDATA[Lozeron N3 170222]]></name>
    <extensions>
      <line xmlns="http://www.topografix.com/GPX/gpx_style/0/2">
        <color>0000FF</color>
        <opacity>0.59</opacity>
        <width>6</width>
      </line>
    </extensions>
    <trkseg>
      <trkpt lat="44.79259" lon="5.13945">
        <ele>449.48</ele>
        <time>2022-02-17T08:00:10.999Z</time>
      </trkpt>
      <trkpt lat="44.79276" lon="5.13949">
        <ele>450.28</ele>
        <time>2022-02-17T08:02:32.701Z</time>
      </trkpt>
      <trkpt lat="44.79302" lon="5.13954">
        <ele>451.59</ele>
        <time>2022-02-17T08:02:50.821Z</time>
      </trkpt>
      <trkpt lat="44.79322" lon="5.13956">
        <ele>452.46</ele>
        <time>2022-02-17T08:03:08.967Z</time>
      </trkpt>
      <trkpt lat="44.79346" lon="5.13956">
        <ele>452.82</ele>
        <time>2022-02-17T08:03:27.166Z</time>
      </trkpt>
      <trkpt lat="44.79369" lon="5.13954">
        <ele>453.07</ele>
        <time>2022-02-17T08:03:45.350Z</time>
      </trkpt>
      <trkpt lat="44.79393" lon="5.13957">
        <ele>451.8</ele>
        <time>2022-02-17T08:04:03.908Z</time>
      </trkpt>
      <trkpt lat="44.79413" lon="5.13956">
        <ele>451.3</ele>
        <time>2022-02-17T08:04:23.048Z</time>
      </trkpt>
      <trkpt lat="44.79435" lon="5.13954">
        <ele>450.9</ele>
        <time>2022-02-17T08:04:41.164Z</time>
      </trkpt>
      <trkpt lat="44.79454" lon="5.13942">
        <ele>451.85</ele>
        <time>2022-02-17T08:05:00.101Z</time>
      </trkpt>
      <trkpt lat="44.79476" lon="5.13927">
        <ele>452.32</ele>
        <time>2022-02-17T08:05:19.238Z</time>
      </trkpt>
      <trkpt lat="44.79495" lon="5.13907">
        <ele>455.05</ele>
        <time>2022-02-17T08:05:38.241Z</time>
      </trkpt>
      <trkpt lat="44.79506" lon="5.13901">
        <ele>456.69</ele>
        <time>2022-02-17T08:05:48.058Z</time>
      </trkpt>
      <trkpt lat="44.79527" lon="5.13903">
        <ele>457.91</ele>
        <time>2022-02-17T08:06:07.213Z</time>
      </trkpt>
      <trkpt lat="44.7954" lon="5.13932">
        <ele>456.22</ele>
        <time>2022-02-17T08:06:26.064Z</time>
      </trkpt>
      <trkpt lat="44.79554" lon="5.13955">
        <ele>455.39</ele>
        <time>2022-02-17T08:06:47.283Z</time>
      </trkpt>
      <trkpt lat="44.79572" lon="5.13947">
        <ele>460.31</ele>
        <time>2022-02-17T08:07:07.203Z</time>
      </trkpt>
      <trkpt lat="44.79581" lon="5.13923">
        <ele>465.28</ele>
        <time>2022-02-17T08:07:27.078Z</time>
      </trkpt>
      <trkpt lat="44.79596" lon="5.13907">
        <ele>467.49</ele>
        <time>2022-02-17T08:07:55.847Z</time>
      </trkpt>
      <trkpt lat="44.7961" lon="5.13884">
        <ele>468.24</ele>
        <time>2022-02-17T08:08:15.000Z</time>
      </trkpt>
      <trkpt lat="44.79623" lon="5.13862">
        <ele>470.03</ele>
        <time>2022-02-17T08:08:36.000Z</time>
      </trkpt>
      <trkpt lat="44.79632" lon="5.13838">
        <ele>473.57</ele>
        <time>2022-02-17T08:08:56.041Z</time>
      </trkpt>
      <trkpt lat="44.79636" lon="5.13812">
        <ele>477.18</ele>
        <time>2022-02-17T08:09:18.991Z</time>
      </trkpt>
      <trkpt lat="44.79638" lon="5.13786">
        <ele>480.85</ele>
        <time>2022-02-17T08:09:38.000Z</time>
      </trkpt>
      <trkpt lat="44.7964" lon="5.13759">
        <ele>483.93</ele>
        <time>2022-02-17T08:09:58.046Z</time>
      </trkpt>
      <trkpt lat="44.79658" lon="5.13751">
        <ele>489.26</ele>
        <time>2022-02-17T08:10:21.160Z</time>
      </trkpt>
      <trkpt lat="44.79671" lon="5.13732">
        <ele>490</ele>
        <time>2022-02-17T08:10:44.000Z</time>
      </trkpt>
      <trkpt lat="44.79688" lon="5.1372">
        <ele>490.09</ele>
        <time>2022-02-17T08:11:08.000Z</time>
      </trkpt>
      <trkpt lat="44.79705" lon="5.1371">
        <ele>491.29</ele>
        <time>2022-02-17T08:11:28.785Z</time>
      </trkpt>
      <trkpt lat="44.7972" lon="5.13695">
        <ele>493.65</ele>
        <time>2022-02-17T08:11:47.883Z</time>
      </trkpt>
      <trkpt lat="44.79729" lon="5.1367">
        <ele>496.19</ele>
        <time>2022-02-17T08:12:07.349Z</time>
      </trkpt>
      <trkpt lat="44.79739" lon="5.13649">
        <ele>499.96</ele>
        <time>2022-02-17T08:12:27.049Z</time>
      </trkpt>
      <trkpt lat="44.79754" lon="5.13648">
        <ele>503.34</ele>
        <time>2022-02-17T08:13:04.125Z</time>
      </trkpt>
      <trkpt lat="44.79773" lon="5.13667">
        <ele>506.01</ele>
        <time>2022-02-17T08:13:22.983Z</time>
      </trkpt>
      <trkpt lat="44.79779" lon="5.13681">
        <ele>506.21</ele>
        <time>2022-02-17T08:16:43.999Z</time>
      </trkpt>
      <trkpt lat="44.79791" lon="5.13708">
        <ele>506.37</ele>
        <time>2022-02-17T08:17:02.182Z</time>
      </trkpt>
      <trkpt lat="44.79803" lon="5.13734">
        <ele>506.85</ele>
        <time>2022-02-17T08:17:21.327Z</time>
      </trkpt>
      <trkpt lat="44.79813" lon="5.13763">
        <ele>507.04</ele>
        <time>2022-02-17T08:17:40.098Z</time>
      </trkpt>
      <trkpt lat="44.7983" lon="5.13783">
        <ele>509.52</ele>
        <time>2022-02-17T08:17:59.128Z</time>
      </trkpt>
      <trkpt lat="44.7985" lon="5.13786">
        <ele>513.31</ele>
        <time>2022-02-17T08:18:18.744Z</time>
      </trkpt>
      <trkpt lat="44.7987" lon="5.13792">
        <ele>516.92</ele>
        <time>2022-02-17T08:18:39.262Z</time>
      </trkpt>
      <trkpt lat="44.79888" lon="5.13797">
        <ele>519.85</ele>
        <time>2022-02-17T08:19:04.019Z</time>
      </trkpt>
      <trkpt lat="44.79906" lon="5.13805">
        <ele>521.76</ele>
        <time>2022-02-17T08:19:22.941Z</time>
      </trkpt>
      <trkpt lat="44.79925" lon="5.13811">
        <ele>523.62</ele>
        <time>2022-02-17T08:19:41.731Z</time>
      </trkpt>
      <trkpt lat="44.79943" lon="5.13814">
        <ele>525.28</ele>
        <time>2022-02-17T08:20:03.165Z</time>
      </trkpt>
      <trkpt lat="44.79961" lon="5.13816">
        <ele>527.15</ele>
        <time>2022-02-17T08:20:24.822Z</time>
      </trkpt>
      <trkpt lat="44.79982" lon="5.13815">
        <ele>529.86</ele>
        <time>2022-02-17T08:20:43.999Z</time>
      </trkpt>
      <trkpt lat="44.80006" lon="5.13811">
        <ele>534.17</ele>
        <time>2022-02-17T08:21:04.166Z</time>
      </trkpt>
      <trkpt lat="44.80026" lon="5.13811">
        <ele>536.7</ele>
        <time>2022-02-17T08:21:26.341Z</time>
      </trkpt>
      <trkpt lat="44.80046" lon="5.13816">
        <ele>538.34</ele>
        <time>2022-02-17T08:21:47.980Z</time>
      </trkpt>
      <trkpt lat="44.80064" lon="5.13826">
        <ele>539.59</ele>
        <time>2022-02-17T08:22:07.203Z</time>
      </trkpt>
      <trkpt lat="44.80081" lon="5.13837">
        <ele>541.86</ele>
        <time>2022-02-17T08:22:26.348Z</time>
      </trkpt>
      <trkpt lat="44.80099" lon="5.13844">
        <ele>546.47</ele>
        <time>2022-02-17T08:22:51.810Z</time>
      </trkpt>
      <trkpt lat="44.80115" lon="5.13858">
        <ele>551.1</ele>
        <time>2022-02-17T08:23:13.999Z</time>
      </trkpt>
      <trkpt lat="44.8013" lon="5.13875">
        <ele>555.62</ele>
        <time>2022-02-17T08:23:33.821Z</time>
      </trkpt>
      <trkpt lat="44.80147" lon="5.13887">
        <ele>561.23</ele>
        <time>2022-02-17T08:23:54.129Z</time>
      </trkpt>
      <trkpt lat="44.80156" lon="5.13891">
        <ele>563.83</ele>
        <time>2022-02-17T08:24:04.186Z</time>
      </trkpt>
      <trkpt lat="44.80172" lon="5.13903">
        <ele>567.44</ele>
        <time>2022-02-17T08:24:29.232Z</time>
      </trkpt>
      <trkpt lat="44.80192" lon="5.1391">
        <ele>571.04</ele>
        <time>2022-02-17T08:24:49.724Z</time>
      </trkpt>
      <trkpt lat="44.80211" lon="5.13914">
        <ele>573.5</ele>
        <time>2022-02-17T08:25:14.041Z</time>
      </trkpt>
      <trkpt lat="44.80229" lon="5.13918">
        <ele>575.59</ele>
        <time>2022-02-17T08:25:35.229Z</time>
      </trkpt>
      <trkpt lat="44.8025" lon="5.13924">
        <ele>577.18</ele>
        <time>2022-02-17T08:28:26.660Z</time>
      </trkpt>
      <trkpt lat="44.80272" lon="5.13923">
        <ele>580</ele>
        <time>2022-02-17T08:28:46.385Z</time>
      </trkpt>
      <trkpt lat="44.80291" lon="5.1392">
        <ele>582.32</ele>
        <time>2022-02-17T08:29:05.702Z</time>
      </trkpt>
      <trkpt lat="44.80309" lon="5.13917">
        <ele>585.14</ele>
        <time>2022-02-17T08:29:27.164Z</time>
      </trkpt>
      <trkpt lat="44.80327" lon="5.13907">
        <ele>590.55</ele>
        <time>2022-02-17T08:29:49.142Z</time>
      </trkpt>
      <trkpt lat="44.8032" lon="5.13894">
        <ele>592.03</ele>
        <time>2022-02-17T08:30:08.050Z</time>
      </trkpt>
      <trkpt lat="44.80301" lon="5.13894">
        <ele>589.2</ele>
        <time>2022-02-17T08:30:31.066Z</time>
      </trkpt>
      <trkpt lat="44.80287" lon="5.13876">
        <ele>593.72</ele>
        <time>2022-02-17T08:30:50.284Z</time>
      </trkpt>
      <trkpt lat="44.80276" lon="5.13854">
        <ele>598.96</ele>
        <time>2022-02-17T08:31:09.978Z</time>
      </trkpt>
      <trkpt lat="44.80265" lon="5.13832">
        <ele>602.54</ele>
        <time>2022-02-17T08:31:28.369Z</time>
      </trkpt>
      <trkpt lat="44.8026" lon="5.13807">
        <ele>606.25</ele>
        <time>2022-02-17T08:31:49.725Z</time>
      </trkpt>
      <trkpt lat="44.80253" lon="5.13783">
        <ele>608.93</ele>
        <time>2022-02-17T08:32:09.222Z</time>
      </trkpt>
      <trkpt lat="44.80245" lon="5.1376">
        <ele>611.17</ele>
        <time>2022-02-17T08:32:30.362Z</time>
      </trkpt>
      <trkpt lat="44.80237" lon="5.13735">
        <ele>613.85</ele>
        <time>2022-02-17T08:32:49.688Z</time>
      </trkpt>
      <trkpt lat="44.80237" lon="5.13713">
        <ele>617.89</ele>
        <time>2022-02-17T08:33:16.923Z</time>
      </trkpt>
      <trkpt lat="44.80256" lon="5.13727">
        <ele>619.44</ele>
        <time>2022-02-17T08:33:36.261Z</time>
      </trkpt>
      <trkpt lat="44.80271" lon="5.13743">
        <ele>619.26</ele>
        <time>2022-02-17T08:33:56.719Z</time>
      </trkpt>
      <trkpt lat="44.80289" lon="5.13759">
        <ele>619.18</ele>
        <time>2022-02-17T08:34:17.285Z</time>
      </trkpt>
      <trkpt lat="44.80298" lon="5.13764">
        <ele>619.78</ele>
        <time>2022-02-17T08:34:27.921Z</time>
      </trkpt>
      <trkpt lat="44.80303" lon="5.13744">
        <ele>623.93</ele>
        <time>2022-02-17T08:34:51.000Z</time>
      </trkpt>
      <trkpt lat="44.80292" lon="5.1372">
        <ele>626.73</ele>
        <time>2022-02-17T08:35:09.402Z</time>
      </trkpt>
      <trkpt lat="44.80282" lon="5.13696">
        <ele>629.73</ele>
        <time>2022-02-17T08:35:29.917Z</time>
      </trkpt>
      <trkpt lat="44.80275" lon="5.13672">
        <ele>632.38</ele>
        <time>2022-02-17T08:35:52.105Z</time>
      </trkpt>
      <trkpt lat="44.80273" lon="5.13647">
        <ele>635.17</ele>
        <time>2022-02-17T08:36:11.687Z</time>
      </trkpt>
      <trkpt lat="44.80271" lon="5.13621">
        <ele>637.11</ele>
        <time>2022-02-17T08:36:31.046Z</time>
      </trkpt>
      <trkpt lat="44.80271" lon="5.1359">
        <ele>639.61</ele>
        <time>2022-02-17T08:36:51.143Z</time>
      </trkpt>
      <trkpt lat="44.80272" lon="5.13561">
        <ele>641.87</ele>
        <time>2022-02-17T08:37:10.260Z</time>
      </trkpt>
      <trkpt lat="44.80275" lon="5.13535">
        <ele>644.59</ele>
        <time>2022-02-17T08:37:28.837Z</time>
      </trkpt>
      <trkpt lat="44.80274" lon="5.13509">
        <ele>646.15</ele>
        <time>2022-02-17T08:37:49.790Z</time>
      </trkpt>
      <trkpt lat="44.80271" lon="5.13481">
        <ele>646.51</ele>
        <time>2022-02-17T08:38:08.285Z</time>
      </trkpt>
      <trkpt lat="44.80285" lon="5.13496">
        <ele>649.91</ele>
        <time>2022-02-17T08:38:28.724Z</time>
      </trkpt>
      <trkpt lat="44.80296" lon="5.13525">
        <ele>651.59</ele>
        <time>2022-02-17T08:38:50.142Z</time>
      </trkpt>
      <trkpt lat="44.80305" lon="5.13553">
        <ele>652.33</ele>
        <time>2022-02-17T08:39:12.107Z</time>
      </trkpt>
      <trkpt lat="44.80314" lon="5.1358">
        <ele>652.46</ele>
        <time>2022-02-17T08:39:31.713Z</time>
      </trkpt>
      <trkpt lat="44.80328" lon="5.13599">
        <ele>653.61</ele>
        <time>2022-02-17T08:39:50.311Z</time>
      </trkpt>
      <trkpt lat="44.80345" lon="5.13601">
        <ele>657.15</ele>
        <time>2022-02-17T08:40:09.759Z</time>
      </trkpt>
      <trkpt lat="44.80343" lon="5.13574">
        <ele>660.14</ele>
        <time>2022-02-17T08:40:28.685Z</time>
      </trkpt>
      <trkpt lat="44.80335" lon="5.13552">
        <ele>660.49</ele>
        <time>2022-02-17T08:40:49.909Z</time>
      </trkpt>
      <trkpt lat="44.80339" lon="5.13535">
        <ele>663.09</ele>
        <time>2022-02-17T08:41:17.161Z</time>
      </trkpt>
      <trkpt lat="44.80358" lon="5.13548">
        <ele>665.52</ele>
        <time>2022-02-17T08:41:35.939Z</time>
      </trkpt>
      <trkpt lat="44.80367" lon="5.13546">
        <ele>667.17</ele>
        <time>2022-02-17T08:41:48.348Z</time>
      </trkpt>
      <trkpt lat="44.80389" lon="5.13543">
        <ele>671.84</ele>
        <time>2022-02-17T08:42:12.384Z</time>
      </trkpt>
      <trkpt lat="44.80408" lon="5.13567">
        <ele>673.2</ele>
        <time>2022-02-17T08:42:31.300Z</time>
      </trkpt>
      <trkpt lat="44.80419" lon="5.13596">
        <ele>673.2</ele>
        <time>2022-02-17T08:42:50.720Z</time>
      </trkpt>
      <trkpt lat="44.80423" lon="5.13627">
        <ele>671.55</ele>
        <time>2022-02-17T08:43:09.367Z</time>
      </trkpt>
      <trkpt lat="44.80433" lon="5.13653">
        <ele>672.9</ele>
        <time>2022-02-17T08:43:29.366Z</time>
      </trkpt>
      <trkpt lat="44.80443" lon="5.1368">
        <ele>673.51</ele>
        <time>2022-02-17T08:43:49.208Z</time>
      </trkpt>
      <trkpt lat="44.80452" lon="5.13714">
        <ele>672.94</ele>
        <time>2022-02-17T08:44:08.000Z</time>
      </trkpt>
      <trkpt lat="44.80465" lon="5.13735">
        <ele>674.19</ele>
        <time>2022-02-17T08:44:28.629Z</time>
      </trkpt>
      <trkpt lat="44.80481" lon="5.13748">
        <ele>676.3</ele>
        <time>2022-02-17T08:44:50.000Z</time>
      </trkpt>
      <trkpt lat="44.805" lon="5.13756">
        <ele>679.58</ele>
        <time>2022-02-17T08:45:09.203Z</time>
      </trkpt>
      <trkpt lat="44.80519" lon="5.13759">
        <ele>682.72</ele>
        <time>2022-02-17T08:45:31.122Z</time>
      </trkpt>
      <trkpt lat="44.80539" lon="5.13762">
        <ele>686</ele>
        <time>2022-02-17T08:45:50.211Z</time>
      </trkpt>
      <trkpt lat="44.80561" lon="5.13768">
        <ele>687.66</ele>
        <time>2022-02-17T08:46:12.070Z</time>
      </trkpt>
      <trkpt lat="44.80581" lon="5.13773">
        <ele>688.86</ele>
        <time>2022-02-17T08:46:30.589Z</time>
      </trkpt>
      <trkpt lat="44.80601" lon="5.13777">
        <ele>690.13</ele>
        <time>2022-02-17T08:46:49.146Z</time>
      </trkpt>
      <trkpt lat="44.8062" lon="5.13779">
        <ele>691.58</ele>
        <time>2022-02-17T08:47:07.361Z</time>
      </trkpt>
      <trkpt lat="44.8064" lon="5.13778">
        <ele>693.71</ele>
        <time>2022-02-17T08:47:26.623Z</time>
      </trkpt>
      <trkpt lat="44.80657" lon="5.13768">
        <ele>698</ele>
        <time>2022-02-17T08:47:48.976Z</time>
      </trkpt>
      <trkpt lat="44.80675" lon="5.1376">
        <ele>700.79</ele>
        <time>2022-02-17T08:48:11.064Z</time>
      </trkpt>
      <trkpt lat="44.80691" lon="5.13746">
        <ele>703.08</ele>
        <time>2022-02-17T08:48:44.000Z</time>
      </trkpt>
      <trkpt lat="44.80709" lon="5.13726">
        <ele>706.3</ele>
        <time>2022-02-17T08:49:15.700Z</time>
      </trkpt>
      <trkpt lat="44.80718" lon="5.13713">
        <ele>709.65</ele>
        <time>2022-02-17T08:49:25.000Z</time>
      </trkpt>
      <trkpt lat="44.80734" lon="5.13697">
        <ele>714.73</ele>
        <time>2022-02-17T08:49:50.000Z</time>
      </trkpt>
      <trkpt lat="44.80752" lon="5.13687">
        <ele>718.91</ele>
        <time>2022-02-17T08:52:58.829Z</time>
      </trkpt>
      <trkpt lat="44.80771" lon="5.1367">
        <ele>725.37</ele>
        <time>2022-02-17T08:53:56.003Z</time>
      </trkpt>
      <trkpt lat="44.80791" lon="5.1365">
        <ele>731.8</ele>
        <time>2022-02-17T08:54:15.642Z</time>
      </trkpt>
      <trkpt lat="44.80808" lon="5.13635">
        <ele>736.94</ele>
        <time>2022-02-17T08:54:39.999Z</time>
      </trkpt>
      <trkpt lat="44.80823" lon="5.13617">
        <ele>743.46</ele>
        <time>2022-02-17T08:55:16.126Z</time>
      </trkpt>
      <trkpt lat="44.80843" lon="5.13608">
        <ele>748.47</ele>
        <time>2022-02-17T08:55:46.085Z</time>
      </trkpt>
      <trkpt lat="44.80867" lon="5.13589">
        <ele>757.1</ele>
        <time>2022-02-17T08:56:42.982Z</time>
      </trkpt>
      <trkpt lat="44.80889" lon="5.13572">
        <ele>764.39</ele>
        <time>2022-02-17T08:57:21.725Z</time>
      </trkpt>
      <trkpt lat="44.80954" lon="5.13512">
        <ele>787.13</ele>
        <time>2022-02-17T09:00:38.650Z</time>
      </trkpt>
      <trkpt lat="44.80991" lon="5.13476">
        <ele>799.27</ele>
        <time>2022-02-17T09:00:57.355Z</time>
      </trkpt>
      <trkpt lat="44.81017" lon="5.13462">
        <ele>804.14</ele>
        <time>2022-02-17T09:01:16.000Z</time>
      </trkpt>
      <trkpt lat="44.81042" lon="5.13445">
        <ele>809.2</ele>
        <time>2022-02-17T09:01:35.164Z</time>
      </trkpt>
      <trkpt lat="44.81063" lon="5.1344">
        <ele>811.63</ele>
        <time>2022-02-17T09:01:58.000Z</time>
      </trkpt>
      <trkpt lat="44.81081" lon="5.13438">
        <ele>813.62</ele>
        <time>2022-02-17T09:02:22.127Z</time>
      </trkpt>
      <trkpt lat="44.81094" lon="5.13425">
        <ele>816.98</ele>
        <time>2022-02-17T09:02:48.105Z</time>
      </trkpt>
      <trkpt lat="44.81102" lon="5.13401">
        <ele>821.01</ele>
        <time>2022-02-17T09:03:22.178Z</time>
      </trkpt>
      <trkpt lat="44.81116" lon="5.13384">
        <ele>824.51</ele>
        <time>2022-02-17T09:03:44.000Z</time>
      </trkpt>
      <trkpt lat="44.81135" lon="5.13379">
        <ele>827.21</ele>
        <time>2022-02-17T09:04:07.886Z</time>
      </trkpt>
      <trkpt lat="44.81152" lon="5.1337">
        <ele>830.12</ele>
        <time>2022-02-17T09:04:29.706Z</time>
      </trkpt>
      <trkpt lat="44.81171" lon="5.13371">
        <ele>832.36</ele>
        <time>2022-02-17T09:11:54.938Z</time>
      </trkpt>
      <trkpt lat="44.81184" lon="5.13372">
        <ele>834.14</ele>
        <time>2022-02-17T09:12:05.271Z</time>
      </trkpt>
      <trkpt lat="44.81204" lon="5.13368">
        <ele>837.4</ele>
        <time>2022-02-17T09:12:23.727Z</time>
      </trkpt>
      <trkpt lat="44.81222" lon="5.13365">
        <ele>840.47</ele>
        <time>2022-02-17T09:12:47.247Z</time>
      </trkpt>
      <trkpt lat="44.81243" lon="5.13365">
        <ele>843.36</ele>
        <time>2022-02-17T09:13:07.105Z</time>
      </trkpt>
      <trkpt lat="44.81261" lon="5.13367">
        <ele>845.55</ele>
        <time>2022-02-17T09:13:27.783Z</time>
      </trkpt>
      <trkpt lat="44.8128" lon="5.13371">
        <ele>847.55</ele>
        <time>2022-02-17T09:13:52.358Z</time>
      </trkpt>
      <trkpt lat="44.813" lon="5.13369">
        <ele>850.12</ele>
        <time>2022-02-17T09:14:11.768Z</time>
      </trkpt>
      <trkpt lat="44.81318" lon="5.13364">
        <ele>852.34</ele>
        <time>2022-02-17T09:14:34.360Z</time>
      </trkpt>
      <trkpt lat="44.81337" lon="5.13368">
        <ele>854.18</ele>
        <time>2022-02-17T09:14:56.863Z</time>
      </trkpt>
      <trkpt lat="44.81355" lon="5.13361">
        <ele>855.73</ele>
        <time>2022-02-17T09:15:21.999Z</time>
      </trkpt>
      <trkpt lat="44.81373" lon="5.13371">
        <ele>857.21</ele>
        <time>2022-02-17T09:15:55.312Z</time>
      </trkpt>
      <trkpt lat="44.81393" lon="5.13381">
        <ele>858.82</ele>
        <time>2022-02-17T09:16:14.945Z</time>
      </trkpt>
      <trkpt lat="44.81411" lon="5.13378">
        <ele>860.52</ele>
        <time>2022-02-17T09:16:33.840Z</time>
      </trkpt>
      <trkpt lat="44.8143" lon="5.13376">
        <ele>862.53</ele>
        <time>2022-02-17T09:16:54.310Z</time>
      </trkpt>
      <trkpt lat="44.81447" lon="5.13388">
        <ele>864.7</ele>
        <time>2022-02-17T09:17:15.069Z</time>
      </trkpt>
      <trkpt lat="44.81462" lon="5.13409">
        <ele>866.28</ele>
        <time>2022-02-17T09:17:35.125Z</time>
      </trkpt>
      <trkpt lat="44.81481" lon="5.13417">
        <ele>868.34</ele>
        <time>2022-02-17T09:17:53.999Z</time>
      </trkpt>
      <trkpt lat="44.81503" lon="5.1342">
        <ele>871.12</ele>
        <time>2022-02-17T09:18:17.260Z</time>
      </trkpt>
      <trkpt lat="44.81523" lon="5.13423">
        <ele>873.69</ele>
        <time>2022-02-17T09:18:40.170Z</time>
      </trkpt>
      <trkpt lat="44.81542" lon="5.13425">
        <ele>876.39</ele>
        <time>2022-02-17T09:18:59.190Z</time>
      </trkpt>
      <trkpt lat="44.81561" lon="5.13425">
        <ele>879.12</ele>
        <time>2022-02-17T09:19:21.845Z</time>
      </trkpt>
      <trkpt lat="44.8158" lon="5.13424">
        <ele>882.19</ele>
        <time>2022-02-17T09:19:40.223Z</time>
      </trkpt>
      <trkpt lat="44.81589" lon="5.13425">
        <ele>883.58</ele>
        <time>2022-02-17T09:19:59.098Z</time>
      </trkpt>
      <trkpt lat="44.81609" lon="5.13424">
        <ele>886.94</ele>
        <time>2022-02-17T09:20:21.904Z</time>
      </trkpt>
      <trkpt lat="44.8163" lon="5.13424">
        <ele>890.55</ele>
        <time>2022-02-17T09:20:41.940Z</time>
      </trkpt>
      <trkpt lat="44.8165" lon="5.13425">
        <ele>893.9</ele>
        <time>2022-02-17T09:21:01.204Z</time>
      </trkpt>
      <trkpt lat="44.81669" lon="5.13436">
        <ele>897.3</ele>
        <time>2022-02-17T09:21:28.000Z</time>
      </trkpt>
      <trkpt lat="44.81688" lon="5.1344">
        <ele>901.13</ele>
        <time>2022-02-17T09:21:50.802Z</time>
      </trkpt>
      <trkpt lat="44.81706" lon="5.13447">
        <ele>904.83</ele>
        <time>2022-02-17T09:22:17.344Z</time>
      </trkpt>
      <trkpt lat="44.81725" lon="5.13447">
        <ele>908.96</ele>
        <time>2022-02-17T09:22:40.127Z</time>
      </trkpt>
      <trkpt lat="44.81745" lon="5.13455">
        <ele>913.03</ele>
        <time>2022-02-17T09:23:01.144Z</time>
      </trkpt>
      <trkpt lat="44.81764" lon="5.13456">
        <ele>916.57</ele>
        <time>2022-02-17T09:23:21.226Z</time>
      </trkpt>
      <trkpt lat="44.81782" lon="5.13458">
        <ele>919.7</ele>
        <time>2022-02-17T09:23:48.000Z</time>
      </trkpt>
      <trkpt lat="44.81802" lon="5.13455">
        <ele>923.06</ele>
        <time>2022-02-17T09:24:08.499Z</time>
      </trkpt>
      <trkpt lat="44.81821" lon="5.13454">
        <ele>926.15</ele>
        <time>2022-02-17T09:24:29.000Z</time>
      </trkpt>
      <trkpt lat="44.8184" lon="5.13451">
        <ele>929.61</ele>
        <time>2022-02-17T09:24:56.056Z</time>
      </trkpt>
      <trkpt lat="44.81857" lon="5.1344">
        <ele>933.77</ele>
        <time>2022-02-17T09:25:17.063Z</time>
      </trkpt>
      <trkpt lat="44.81874" lon="5.1343">
        <ele>937.85</ele>
        <time>2022-02-17T09:25:39.144Z</time>
      </trkpt>
      <trkpt lat="44.81891" lon="5.13422">
        <ele>941.59</ele>
        <time>2022-02-17T09:26:05.142Z</time>
      </trkpt>
      <trkpt lat="44.81909" lon="5.13415">
        <ele>944.95</ele>
        <time>2022-02-17T09:26:32.098Z</time>
      </trkpt>
      <trkpt lat="44.81928" lon="5.13412">
        <ele>947.77</ele>
        <time>2022-02-17T09:26:55.622Z</time>
      </trkpt>
      <trkpt lat="44.81947" lon="5.13408">
        <ele>950.35</ele>
        <time>2022-02-17T09:27:21.203Z</time>
      </trkpt>
      <trkpt lat="44.81965" lon="5.13401">
        <ele>952.76</ele>
        <time>2022-02-17T09:27:44.100Z</time>
      </trkpt>
      <trkpt lat="44.81983" lon="5.1339">
        <ele>955.43</ele>
        <time>2022-02-17T09:28:06.188Z</time>
      </trkpt>
      <trkpt lat="44.81992" lon="5.1339">
        <ele>956.84</ele>
        <time>2022-02-17T09:28:16.008Z</time>
      </trkpt>
      <trkpt lat="44.8201" lon="5.13382">
        <ele>959.99</ele>
        <time>2022-02-17T09:28:38.186Z</time>
      </trkpt>
      <trkpt lat="44.82027" lon="5.13368">
        <ele>962.76</ele>
        <time>2022-02-17T09:29:00.346Z</time>
      </trkpt>
      <trkpt lat="44.82045" lon="5.13358">
        <ele>965.39</ele>
        <time>2022-02-17T09:29:21.640Z</time>
      </trkpt>
      <trkpt lat="44.82063" lon="5.13359">
        <ele>968.2</ele>
        <time>2022-02-17T09:29:44.999Z</time>
      </trkpt>
      <trkpt lat="44.82083" lon="5.13362">
        <ele>971.08</ele>
        <time>2022-02-17T09:32:11.999Z</time>
      </trkpt>
      <trkpt lat="44.82102" lon="5.13367">
        <ele>973.68</ele>
        <time>2022-02-17T09:32:36.086Z</time>
      </trkpt>
      <trkpt lat="44.82124" lon="5.13369">
        <ele>976.17</ele>
        <time>2022-02-17T09:33:00.184Z</time>
      </trkpt>
      <trkpt lat="44.82145" lon="5.1337">
        <ele>978.24</ele>
        <time>2022-02-17T09:33:30.279Z</time>
      </trkpt>
      <trkpt lat="44.82165" lon="5.13373">
        <ele>980.27</ele>
        <time>2022-02-17T09:33:49.747Z</time>
      </trkpt>
      <trkpt lat="44.82187" lon="5.13379">
        <ele>982.89</ele>
        <time>2022-02-17T09:34:09.186Z</time>
      </trkpt>
      <trkpt lat="44.82207" lon="5.13392">
        <ele>986</ele>
        <time>2022-02-17T09:34:28.362Z</time>
      </trkpt>
      <trkpt lat="44.82226" lon="5.13399">
        <ele>988.44</ele>
        <time>2022-02-17T09:34:47.020Z</time>
      </trkpt>
      <trkpt lat="44.82245" lon="5.13408">
        <ele>990.11</ele>
        <time>2022-02-17T09:35:07.124Z</time>
      </trkpt>
      <trkpt lat="44.82265" lon="5.13419">
        <ele>990.3</ele>
        <time>2022-02-17T09:35:26.563Z</time>
      </trkpt>
      <trkpt lat="44.82282" lon="5.13426">
        <ele>989.63</ele>
        <time>2022-02-17T09:35:46.062Z</time>
      </trkpt>
      <trkpt lat="44.823" lon="5.13434">
        <ele>988.77</ele>
        <time>2022-02-17T09:36:06.871Z</time>
      </trkpt>
      <trkpt lat="44.82318" lon="5.13441">
        <ele>988.51</ele>
        <time>2022-02-17T09:36:26.999Z</time>
      </trkpt>
      <trkpt lat="44.82338" lon="5.13447">
        <ele>989.1</ele>
        <time>2022-02-17T09:36:48.143Z</time>
      </trkpt>
      <trkpt lat="44.82358" lon="5.13445">
        <ele>990.13</ele>
        <time>2022-02-17T09:37:07.562Z</time>
      </trkpt>
      <trkpt lat="44.82377" lon="5.13443">
        <ele>991.06</ele>
        <time>2022-02-17T09:37:25.727Z</time>
      </trkpt>
      <trkpt lat="44.82401" lon="5.13433">
        <ele>992.02</ele>
        <time>2022-02-17T09:37:44.344Z</time>
      </trkpt>
      <trkpt lat="44.8242" lon="5.13437">
        <ele>993.61</ele>
        <time>2022-02-17T09:38:05.961Z</time>
      </trkpt>
      <trkpt lat="44.8243" lon="5.13434">
        <ele>994.42</ele>
        <time>2022-02-17T09:38:15.360Z</time>
      </trkpt>
      <trkpt lat="44.82452" lon="5.13432">
        <ele>996.6</ele>
        <time>2022-02-17T09:38:35.201Z</time>
      </trkpt>
      <trkpt lat="44.82473" lon="5.13433">
        <ele>999.19</ele>
        <time>2022-02-17T09:38:56.237Z</time>
      </trkpt>
      <trkpt lat="44.82492" lon="5.1343">
        <ele>1001.41</ele>
        <time>2022-02-17T09:39:17.248Z</time>
      </trkpt>
      <trkpt lat="44.82515" lon="5.1343">
        <ele>1004.14</ele>
        <time>2022-02-17T09:39:36.145Z</time>
      </trkpt>
      <trkpt lat="44.82533" lon="5.1343">
        <ele>1006.28</ele>
        <time>2022-02-17T09:39:57.121Z</time>
      </trkpt>
      <trkpt lat="44.82552" lon="5.13437">
        <ele>1008.56</ele>
        <time>2022-02-17T09:40:17.843Z</time>
      </trkpt>
      <trkpt lat="44.8257" lon="5.13441">
        <ele>1010.64</ele>
        <time>2022-02-17T09:40:37.026Z</time>
      </trkpt>
      <trkpt lat="44.82588" lon="5.13438">
        <ele>1012.64</ele>
        <time>2022-02-17T09:41:02.944Z</time>
      </trkpt>
      <trkpt lat="44.8261" lon="5.1344">
        <ele>1014.93</ele>
        <time>2022-02-17T09:41:22.903Z</time>
      </trkpt>
      <trkpt lat="44.8263" lon="5.13443">
        <ele>1016.96</ele>
        <time>2022-02-17T09:41:43.860Z</time>
      </trkpt>
      <trkpt lat="44.82659" lon="5.13444">
        <ele>1019.67</ele>
        <time>2022-02-17T09:42:45.222Z</time>
      </trkpt>
      <trkpt lat="44.82686" lon="5.1345">
        <ele>1021.81</ele>
        <time>2022-02-17T09:43:09.668Z</time>
      </trkpt>
      <trkpt lat="44.82706" lon="5.13459">
        <ele>1023.04</ele>
        <time>2022-02-17T09:43:29.102Z</time>
      </trkpt>
      <trkpt lat="44.82734" lon="5.13471">
        <ele>1024.14</ele>
        <time>2022-02-17T09:43:49.266Z</time>
      </trkpt>
      <trkpt lat="44.82765" lon="5.13478">
        <ele>1024.77</ele>
        <time>2022-02-17T09:44:08.061Z</time>
      </trkpt>
      <trkpt lat="44.82792" lon="5.13488">
        <ele>1023.92</ele>
        <time>2022-02-17T09:44:47.089Z</time>
      </trkpt>
      <trkpt lat="44.82812" lon="5.13488">
        <ele>1023.91</ele>
        <time>2022-02-17T09:45:09.127Z</time>
      </trkpt>
      <trkpt lat="44.8283" lon="5.13485">
        <ele>1024.31</ele>
        <time>2022-02-17T09:45:35.000Z</time>
      </trkpt>
      <trkpt lat="44.82853" lon="5.1349">
        <ele>1024.51</ele>
        <time>2022-02-17T09:45:57.566Z</time>
      </trkpt>
      <trkpt lat="44.82877" lon="5.13499">
        <ele>1025.12</ele>
        <time>2022-02-17T09:46:16.145Z</time>
      </trkpt>
      <trkpt lat="44.82903" lon="5.13502">
        <ele>1026.32</ele>
        <time>2022-02-17T09:46:34.641Z</time>
      </trkpt>
      <trkpt lat="44.82912" lon="5.135">
        <ele>1026.81</ele>
        <time>2022-02-17T09:46:48.224Z</time>
      </trkpt>
      <trkpt lat="44.82933" lon="5.13499">
        <ele>1027.59</ele>
        <time>2022-02-17T09:47:08.178Z</time>
      </trkpt>
      <trkpt lat="44.82962" lon="5.13498">
        <ele>1028.38</ele>
        <time>2022-02-17T09:47:42.128Z</time>
      </trkpt>
      <trkpt lat="44.82994" lon="5.13498">
        <ele>1028.89</ele>
        <time>2022-02-17T09:48:00.225Z</time>
      </trkpt>
      <trkpt lat="44.83014" lon="5.13503">
        <ele>1029.04</ele>
        <time>2022-02-17T09:48:27.624Z</time>
      </trkpt>
      <trkpt lat="44.83033" lon="5.13509">
        <ele>1028.88</ele>
        <time>2022-02-17T09:48:50.332Z</time>
      </trkpt>
      <trkpt lat="44.83066" lon="5.13518">
        <ele>1028.62</ele>
        <time>2022-02-17T09:49:37.603Z</time>
      </trkpt>
      <trkpt lat="44.83118" lon="5.13524">
        <ele>1030.24</ele>
        <time>2022-02-17T09:49:56.280Z</time>
      </trkpt>
      <trkpt lat="44.83156" lon="5.13525">
        <ele>1032.37</ele>
        <time>2022-02-17T09:50:16.110Z</time>
      </trkpt>
      <trkpt lat="44.83177" lon="5.13535">
        <ele>1034.07</ele>
        <time>2022-02-17T09:50:35.402Z</time>
      </trkpt>
      <trkpt lat="44.83196" lon="5.13544">
        <ele>1035.73</ele>
        <time>2022-02-17T09:50:56.243Z</time>
      </trkpt>
      <trkpt lat="44.83216" lon="5.13547">
        <ele>1037.18</ele>
        <time>2022-02-17T09:51:15.205Z</time>
      </trkpt>
      <trkpt lat="44.83239" lon="5.13551">
        <ele>1038.62</ele>
        <time>2022-02-17T09:51:35.181Z</time>
      </trkpt>
      <trkpt lat="44.83259" lon="5.13557">
        <ele>1039.64</ele>
        <time>2022-02-17T09:51:54.354Z</time>
      </trkpt>
      <trkpt lat="44.83279" lon="5.13561">
        <ele>1039.81</ele>
        <time>2022-02-17T09:52:13.302Z</time>
      </trkpt>
      <trkpt lat="44.83299" lon="5.13568">
        <ele>1039.82</ele>
        <time>2022-02-17T09:52:31.984Z</time>
      </trkpt>
      <trkpt lat="44.83319" lon="5.1357">
        <ele>1040.03</ele>
        <time>2022-02-17T09:52:52.599Z</time>
      </trkpt>
      <trkpt lat="44.83339" lon="5.13572">
        <ele>1041.38</ele>
        <time>2022-02-17T09:53:11.222Z</time>
      </trkpt>
      <trkpt lat="44.83357" lon="5.13572">
        <ele>1043.72</ele>
        <time>2022-02-17T09:53:33.968Z</time>
      </trkpt>
      <trkpt lat="44.83375" lon="5.13582">
        <ele>1047.19</ele>
        <time>2022-02-17T09:53:57.005Z</time>
      </trkpt>
      <trkpt lat="44.83388" lon="5.13598">
        <ele>1049.8</ele>
        <time>2022-02-17T09:54:28.088Z</time>
      </trkpt>
      <trkpt lat="44.83406" lon="5.13612">
        <ele>1052.53</ele>
        <time>2022-02-17T09:54:57.356Z</time>
      </trkpt>
      <trkpt lat="44.83422" lon="5.13611">
        <ele>1054.73</ele>
        <time>2022-02-17T09:55:06.861Z</time>
      </trkpt>
      <trkpt lat="44.83441" lon="5.13603">
        <ele>1056.77</ele>
        <time>2022-02-17T09:55:33.999Z</time>
      </trkpt>
      <trkpt lat="44.83457" lon="5.13616">
        <ele>1057.88</ele>
        <time>2022-02-17T10:03:11.006Z</time>
      </trkpt>
      <trkpt lat="44.83472" lon="5.13635">
        <ele>1058.36</ele>
        <time>2022-02-17T10:03:31.704Z</time>
      </trkpt>
      <trkpt lat="44.83487" lon="5.13656">
        <ele>1058.5</ele>
        <time>2022-02-17T10:03:51.942Z</time>
      </trkpt>
      <trkpt lat="44.83504" lon="5.13672">
        <ele>1059.02</ele>
        <time>2022-02-17T10:04:10.159Z</time>
      </trkpt>
      <trkpt lat="44.83521" lon="5.13689">
        <ele>1058.87</ele>
        <time>2022-02-17T10:04:30.000Z</time>
      </trkpt>
      <trkpt lat="44.83537" lon="5.13707">
        <ele>1058.57</ele>
        <time>2022-02-17T10:04:48.770Z</time>
      </trkpt>
      <trkpt lat="44.83555" lon="5.13722">
        <ele>1058.89</ele>
        <time>2022-02-17T10:05:09.245Z</time>
      </trkpt>
      <trkpt lat="44.8357" lon="5.13722">
        <ele>1059.8</ele>
        <time>2022-02-17T10:05:29.101Z</time>
      </trkpt>
      <trkpt lat="44.83579" lon="5.13697">
        <ele>1060.52</ele>
        <time>2022-02-17T10:05:47.999Z</time>
      </trkpt>
      <trkpt lat="44.83583" lon="5.13672">
        <ele>1060.2</ele>
        <time>2022-02-17T10:06:08.999Z</time>
      </trkpt>
      <trkpt lat="44.83597" lon="5.13669">
        <ele>1060.03</ele>
        <time>2022-02-17T10:06:29.785Z</time>
      </trkpt>
      <trkpt lat="44.83615" lon="5.13681">
        <ele>1060.38</ele>
        <time>2022-02-17T10:06:48.502Z</time>
      </trkpt>
      <trkpt lat="44.83632" lon="5.13692">
        <ele>1060.66</ele>
        <time>2022-02-17T10:07:07.057Z</time>
      </trkpt>
      <trkpt lat="44.83653" lon="5.13704">
        <ele>1061.06</ele>
        <time>2022-02-17T10:07:26.252Z</time>
      </trkpt>
      <trkpt lat="44.83672" lon="5.13716">
        <ele>1061.81</ele>
        <time>2022-02-17T10:07:45.084Z</time>
      </trkpt>
      <trkpt lat="44.83692" lon="5.13726">
        <ele>1063.01</ele>
        <time>2022-02-17T10:08:03.645Z</time>
      </trkpt>
      <trkpt lat="44.83714" lon="5.13733">
        <ele>1064.45</ele>
        <time>2022-02-17T10:08:22.239Z</time>
      </trkpt>
      <trkpt lat="44.83732" lon="5.13745">
        <ele>1066.07</ele>
        <time>2022-02-17T10:08:40.989Z</time>
      </trkpt>
      <trkpt lat="44.83748" lon="5.13756">
        <ele>1067.42</ele>
        <time>2022-02-17T10:09:00.084Z</time>
      </trkpt>
      <trkpt lat="44.83772" lon="5.13766">
        <ele>1068.52</ele>
        <time>2022-02-17T10:09:19.882Z</time>
      </trkpt>
      <trkpt lat="44.8378" lon="5.1376">
        <ele>1068.12</ele>
        <time>2022-02-17T10:09:29.979Z</time>
      </trkpt>
      <trkpt lat="44.83798" lon="5.13755">
        <ele>1067.69</ele>
        <time>2022-02-17T10:09:52.161Z</time>
      </trkpt>
      <trkpt lat="44.83822" lon="5.13746">
        <ele>1066.78</ele>
        <time>2022-02-17T10:10:10.438Z</time>
      </trkpt>
      <trkpt lat="44.8384" lon="5.13735">
        <ele>1065.66</ele>
        <time>2022-02-17T10:10:29.999Z</time>
      </trkpt>
      <trkpt lat="44.83856" lon="5.13726">
        <ele>1064.57</ele>
        <time>2022-02-17T10:10:49.211Z</time>
      </trkpt>
      <trkpt lat="44.8388" lon="5.13724">
        <ele>1064.1</ele>
        <time>2022-02-17T10:11:08.166Z</time>
      </trkpt>
      <trkpt lat="44.83903" lon="5.13719">
        <ele>1063.61</ele>
        <time>2022-02-17T10:11:26.802Z</time>
      </trkpt>
      <trkpt lat="44.83925" lon="5.13721">
        <ele>1064.01</ele>
        <time>2022-02-17T10:11:45.068Z</time>
      </trkpt>
      <trkpt lat="44.83941" lon="5.13733">
        <ele>1065.57</ele>
        <time>2022-02-17T10:12:05.704Z</time>
      </trkpt>
      <trkpt lat="44.83956" lon="5.13748">
        <ele>1067.66</ele>
        <time>2022-02-17T10:12:25.790Z</time>
      </trkpt>
      <trkpt lat="44.83972" lon="5.13765">
        <ele>1069.55</ele>
        <time>2022-02-17T10:12:44.161Z</time>
      </trkpt>
      <trkpt lat="44.8399" lon="5.13782">
        <ele>1070.69</ele>
        <time>2022-02-17T10:13:03.999Z</time>
      </trkpt>
      <trkpt lat="44.8401" lon="5.13794">
        <ele>1070.89</ele>
        <time>2022-02-17T10:13:24.088Z</time>
      </trkpt>
      <trkpt lat="44.84029" lon="5.13806">
        <ele>1070.69</ele>
        <time>2022-02-17T10:13:43.066Z</time>
      </trkpt>
      <trkpt lat="44.84049" lon="5.13815">
        <ele>1070.54</ele>
        <time>2022-02-17T10:14:02.046Z</time>
      </trkpt>
      <trkpt lat="44.84067" lon="5.13823">
        <ele>1070.62</ele>
        <time>2022-02-17T10:14:21.500Z</time>
      </trkpt>
      <trkpt lat="44.84089" lon="5.13826">
        <ele>1071.05</ele>
        <time>2022-02-17T10:14:39.827Z</time>
      </trkpt>
      <trkpt lat="44.84112" lon="5.13828">
        <ele>1071.84</ele>
        <time>2022-02-17T10:14:58.586Z</time>
      </trkpt>
      <trkpt lat="44.84131" lon="5.1384">
        <ele>1073</ele>
        <time>2022-02-17T10:15:17.623Z</time>
      </trkpt>
      <trkpt lat="44.84149" lon="5.13855">
        <ele>1074.6</ele>
        <time>2022-02-17T10:15:36.539Z</time>
      </trkpt>
      <trkpt lat="44.84162" lon="5.13878">
        <ele>1076.55</ele>
        <time>2022-02-17T10:15:55.617Z</time>
      </trkpt>
      <trkpt lat="44.8417" lon="5.13906">
        <ele>1078.05</ele>
        <time>2022-02-17T10:16:14.348Z</time>
      </trkpt>
      <trkpt lat="44.8418" lon="5.13913">
        <ele>1078.52</ele>
        <time>2022-02-17T10:16:23.810Z</time>
      </trkpt>
      <trkpt lat="44.84195" lon="5.13929">
        <ele>1079.01</ele>
        <time>2022-02-17T10:16:43.765Z</time>
      </trkpt>
      <trkpt lat="44.84203" lon="5.13955">
        <ele>1078.7</ele>
        <time>2022-02-17T10:17:14.126Z</time>
      </trkpt>
      <trkpt lat="44.84232" lon="5.14006">
        <ele>1080.3</ele>
        <time>2022-02-17T10:19:20.000Z</time>
      </trkpt>
      <trkpt lat="44.8425" lon="5.14019">
        <ele>1082.67</ele>
        <time>2022-02-17T10:19:40.590Z</time>
      </trkpt>
      <trkpt lat="44.84269" lon="5.14034">
        <ele>1085.52</ele>
        <time>2022-02-17T10:20:05.000Z</time>
      </trkpt>
      <trkpt lat="44.84284" lon="5.1405">
        <ele>1088.85</ele>
        <time>2022-02-17T10:20:25.357Z</time>
      </trkpt>
      <trkpt lat="44.84299" lon="5.14067">
        <ele>1092.7</ele>
        <time>2022-02-17T10:22:47.000Z</time>
      </trkpt>
      <trkpt lat="44.84316" lon="5.14081">
        <ele>1096.34</ele>
        <time>2022-02-17T10:23:07.145Z</time>
      </trkpt>
      <trkpt lat="44.84335" lon="5.14091">
        <ele>1099.48</ele>
        <time>2022-02-17T10:23:27.225Z</time>
      </trkpt>
      <trkpt lat="44.84352" lon="5.14101">
        <ele>1101.97</ele>
        <time>2022-02-17T10:23:49.024Z</time>
      </trkpt>
      <trkpt lat="44.84371" lon="5.14108">
        <ele>1104.38</ele>
        <time>2022-02-17T10:24:09.023Z</time>
      </trkpt>
      <trkpt lat="44.84391" lon="5.14111">
        <ele>1106.52</ele>
        <time>2022-02-17T10:24:29.167Z</time>
      </trkpt>
      <trkpt lat="44.8441" lon="5.14117">
        <ele>1108.46</ele>
        <time>2022-02-17T10:24:48.228Z</time>
      </trkpt>
      <trkpt lat="44.84429" lon="5.14118">
        <ele>1109.92</ele>
        <time>2022-02-17T10:25:10.370Z</time>
      </trkpt>
      <trkpt lat="44.84448" lon="5.14119">
        <ele>1110.96</ele>
        <time>2022-02-17T10:25:30.496Z</time>
      </trkpt>
      <trkpt lat="44.84468" lon="5.14119">
        <ele>1111.67</ele>
        <time>2022-02-17T10:25:50.677Z</time>
      </trkpt>
      <trkpt lat="44.84487" lon="5.14124">
        <ele>1112.14</ele>
        <time>2022-02-17T10:26:14.351Z</time>
      </trkpt>
      <trkpt lat="44.84507" lon="5.14133">
        <ele>1112.41</ele>
        <time>2022-02-17T10:26:33.244Z</time>
      </trkpt>
      <trkpt lat="44.84526" lon="5.14142">
        <ele>1112.32</ele>
        <time>2022-02-17T10:26:53.082Z</time>
      </trkpt>
      <trkpt lat="44.84545" lon="5.14147">
        <ele>1111.97</ele>
        <time>2022-02-17T10:27:14.427Z</time>
      </trkpt>
      <trkpt lat="44.84564" lon="5.14146">
        <ele>1111.45</ele>
        <time>2022-02-17T10:27:33.723Z</time>
      </trkpt>
      <trkpt lat="44.84572" lon="5.14153">
        <ele>1111.37</ele>
        <time>2022-02-17T10:28:02.022Z</time>
      </trkpt>
      <trkpt lat="44.84597" lon="5.14153">
        <ele>1110.77</ele>
        <time>2022-02-17T10:28:20.398Z</time>
      </trkpt>
      <trkpt lat="44.84618" lon="5.14158">
        <ele>1110.1</ele>
        <time>2022-02-17T10:28:39.140Z</time>
      </trkpt>
      <trkpt lat="44.84643" lon="5.14153">
        <ele>1108.92</ele>
        <time>2022-02-17T10:28:57.341Z</time>
      </trkpt>
      <trkpt lat="44.84663" lon="5.1416">
        <ele>1109.52</ele>
        <time>2022-02-17T10:29:35.025Z</time>
      </trkpt>
      <trkpt lat="44.8468" lon="5.14152">
        <ele>1109.38</ele>
        <time>2022-02-17T10:30:04.242Z</time>
      </trkpt>
      <trkpt lat="44.84698" lon="5.14161">
        <ele>1111.95</ele>
        <time>2022-02-17T10:30:26.281Z</time>
      </trkpt>
      <trkpt lat="44.84709" lon="5.14184">
        <ele>1114.24</ele>
        <time>2022-02-17T10:30:52.828Z</time>
      </trkpt>
      <trkpt lat="44.84725" lon="5.14196">
        <ele>1116.44</ele>
        <time>2022-02-17T10:31:13.164Z</time>
      </trkpt>
      <trkpt lat="44.84743" lon="5.14201">
        <ele>1119.24</ele>
        <time>2022-02-17T10:31:34.884Z</time>
      </trkpt>
      <trkpt lat="44.84761" lon="5.1421">
        <ele>1121.9</ele>
        <time>2022-02-17T10:32:12.729Z</time>
      </trkpt>
      <trkpt lat="44.8478" lon="5.14217">
        <ele>1125.34</ele>
        <time>2022-02-17T10:32:33.999Z</time>
      </trkpt>
      <trkpt lat="44.84798" lon="5.14221">
        <ele>1128.68</ele>
        <time>2022-02-17T10:32:54.083Z</time>
      </trkpt>
      <trkpt lat="44.84817" lon="5.14216">
        <ele>1130.82</ele>
        <time>2022-02-17T10:33:13.819Z</time>
      </trkpt>
      <trkpt lat="44.84832" lon="5.1423">
        <ele>1133.36</ele>
        <time>2022-02-17T10:33:38.266Z</time>
      </trkpt>
      <trkpt lat="44.84851" lon="5.14239">
        <ele>1134.29</ele>
        <time>2022-02-17T10:34:00.782Z</time>
      </trkpt>
      <trkpt lat="44.84834" lon="5.14227">
        <ele>1133.23</ele>
        <time>2022-02-17T10:35:15.362Z</time>
      </trkpt>
      <trkpt lat="44.84817" lon="5.14213">
        <ele>1130.55</ele>
        <time>2022-02-17T10:36:04.281Z</time>
      </trkpt>
      <trkpt lat="44.84823" lon="5.14224">
        <ele>1132.18</ele>
        <time>2022-02-17T11:25:48.824Z</time>
      </trkpt>
      <trkpt lat="44.84843" lon="5.1424">
        <ele>1134.32</ele>
        <time>2022-02-17T11:26:07.783Z</time>
      </trkpt>
      <trkpt lat="44.84861" lon="5.14241">
        <ele>1134.07</ele>
        <time>2022-02-17T11:26:30.350Z</time>
      </trkpt>
      <trkpt lat="44.84881" lon="5.14244">
        <ele>1132.78</ele>
        <time>2022-02-17T11:27:33.024Z</time>
      </trkpt>
      <trkpt lat="44.84902" lon="5.1424">
        <ele>1130.78</ele>
        <time>2022-02-17T11:27:51.243Z</time>
      </trkpt>
      <trkpt lat="44.84912" lon="5.14239">
        <ele>1129.9</ele>
        <time>2022-02-17T11:28:03.259Z</time>
      </trkpt>
      <trkpt lat="44.84931" lon="5.14245">
        <ele>1128.9</ele>
        <time>2022-02-17T11:28:23.869Z</time>
      </trkpt>
      <trkpt lat="44.84952" lon="5.14246">
        <ele>1127.12</ele>
        <time>2022-02-17T11:28:44.297Z</time>
      </trkpt>
      <trkpt lat="44.84974" lon="5.14247">
        <ele>1125.4</ele>
        <time>2022-02-17T11:29:02.401Z</time>
      </trkpt>
      <trkpt lat="44.84995" lon="5.1425">
        <ele>1124.2</ele>
        <time>2022-02-17T11:29:21.276Z</time>
      </trkpt>
      <trkpt lat="44.85014" lon="5.14255">
        <ele>1123.85</ele>
        <time>2022-02-17T11:29:39.983Z</time>
      </trkpt>
      <trkpt lat="44.85032" lon="5.14267">
        <ele>1123.83</ele>
        <time>2022-02-17T11:29:58.623Z</time>
      </trkpt>
      <trkpt lat="44.85053" lon="5.14276">
        <ele>1123.93</ele>
        <time>2022-02-17T11:30:16.685Z</time>
      </trkpt>
      <trkpt lat="44.85073" lon="5.14282">
        <ele>1123.78</ele>
        <time>2022-02-17T11:30:35.304Z</time>
      </trkpt>
      <trkpt lat="44.85087" lon="5.14296">
        <ele>1122.26</ele>
        <time>2022-02-17T11:31:11.762Z</time>
      </trkpt>
      <trkpt lat="44.85109" lon="5.14307">
        <ele>1120.85</ele>
        <time>2022-02-17T11:31:30.940Z</time>
      </trkpt>
      <trkpt lat="44.8513" lon="5.14314">
        <ele>1119.71</ele>
        <time>2022-02-17T11:31:50.077Z</time>
      </trkpt>
      <trkpt lat="44.8515" lon="5.14323">
        <ele>1118.07</ele>
        <time>2022-02-17T11:32:09.268Z</time>
      </trkpt>
      <trkpt lat="44.85172" lon="5.14332">
        <ele>1115.54</ele>
        <time>2022-02-17T11:32:28.207Z</time>
      </trkpt>
      <trkpt lat="44.8519" lon="5.14347">
        <ele>1111.8</ele>
        <time>2022-02-17T11:32:47.107Z</time>
      </trkpt>
      <trkpt lat="44.85214" lon="5.14358">
        <ele>1107.17</ele>
        <time>2022-02-17T11:33:07.002Z</time>
      </trkpt>
      <trkpt lat="44.85234" lon="5.14364">
        <ele>1104.18</ele>
        <time>2022-02-17T11:33:25.479Z</time>
      </trkpt>
      <trkpt lat="44.85254" lon="5.14372">
        <ele>1102.54</ele>
        <time>2022-02-17T11:33:44.866Z</time>
      </trkpt>
      <trkpt lat="44.85277" lon="5.14378">
        <ele>1101.95</ele>
        <time>2022-02-17T11:34:03.368Z</time>
      </trkpt>
      <trkpt lat="44.85298" lon="5.14388">
        <ele>1102.14</ele>
        <time>2022-02-17T11:34:21.959Z</time>
      </trkpt>
      <trkpt lat="44.85317" lon="5.14406">
        <ele>1102.62</ele>
        <time>2022-02-17T11:34:40.869Z</time>
      </trkpt>
      <trkpt lat="44.85332" lon="5.1443">
        <ele>1101.81</ele>
        <time>2022-02-17T11:34:59.998Z</time>
      </trkpt>
      <trkpt lat="44.85335" lon="5.14444">
        <ele>1100.19</ele>
        <time>2022-02-17T11:35:09.618Z</time>
      </trkpt>
      <trkpt lat="44.85344" lon="5.14468">
        <ele>1096.9</ele>
        <time>2022-02-17T11:35:28.546Z</time>
      </trkpt>
      <trkpt lat="44.85359" lon="5.14489">
        <ele>1094.73</ele>
        <time>2022-02-17T11:35:47.144Z</time>
      </trkpt>
      <trkpt lat="44.85371" lon="5.14512">
        <ele>1092.13</ele>
        <time>2022-02-17T11:36:05.683Z</time>
      </trkpt>
      <trkpt lat="44.85385" lon="5.14531">
        <ele>1090.24</ele>
        <time>2022-02-17T11:36:24.080Z</time>
      </trkpt>
      <trkpt lat="44.85404" lon="5.14551">
        <ele>1088.51</ele>
        <time>2022-02-17T11:36:42.966Z</time>
      </trkpt>
      <trkpt lat="44.85419" lon="5.14568">
        <ele>1086.59</ele>
        <time>2022-02-17T11:37:02.922Z</time>
      </trkpt>
      <trkpt lat="44.85435" lon="5.14588">
        <ele>1083.65</ele>
        <time>2022-02-17T11:37:21.369Z</time>
      </trkpt>
      <trkpt lat="44.85447" lon="5.1461">
        <ele>1079.01</ele>
        <time>2022-02-17T11:37:40.016Z</time>
      </trkpt>
      <trkpt lat="44.85461" lon="5.14629">
        <ele>1075.18</ele>
        <time>2022-02-17T11:38:01.649Z</time>
      </trkpt>
      <trkpt lat="44.85477" lon="5.14644">
        <ele>1073</ele>
        <time>2022-02-17T11:38:20.760Z</time>
      </trkpt>
      <trkpt lat="44.85498" lon="5.14654">
        <ele>1072.95</ele>
        <time>2022-02-17T11:38:41.230Z</time>
      </trkpt>
      <trkpt lat="44.85522" lon="5.14666">
        <ele>1072.28</ele>
        <time>2022-02-17T11:39:04.946Z</time>
      </trkpt>
      <trkpt lat="44.85545" lon="5.14682">
        <ele>1069.86</ele>
        <time>2022-02-17T11:39:29.264Z</time>
      </trkpt>
      <trkpt lat="44.85572" lon="5.14702">
        <ele>1067.12</ele>
        <time>2022-02-17T11:39:52.640Z</time>
      </trkpt>
      <trkpt lat="44.85598" lon="5.14712">
        <ele>1067.48</ele>
        <time>2022-02-17T11:40:11.999Z</time>
      </trkpt>
      <trkpt lat="44.85623" lon="5.14726">
        <ele>1066.3</ele>
        <time>2022-02-17T11:40:30.706Z</time>
      </trkpt>
      <trkpt lat="44.85642" lon="5.14735">
        <ele>1065.78</ele>
        <time>2022-02-17T11:40:51.824Z</time>
      </trkpt>
      <trkpt lat="44.85663" lon="5.14749">
        <ele>1063.73</ele>
        <time>2022-02-17T11:41:10.920Z</time>
      </trkpt>
      <trkpt lat="44.8569" lon="5.14761">
        <ele>1063.56</ele>
        <time>2022-02-17T11:41:29.660Z</time>
      </trkpt>
      <trkpt lat="44.85709" lon="5.14775">
        <ele>1061.34</ele>
        <time>2022-02-17T11:41:48.439Z</time>
      </trkpt>
      <trkpt lat="44.85713" lon="5.14799">
        <ele>1053.66</ele>
        <time>2022-02-17T11:42:51.025Z</time>
      </trkpt>
      <trkpt lat="44.85712" lon="5.14812">
        <ele>1049.24</ele>
        <time>2022-02-17T11:43:03.262Z</time>
      </trkpt>
      <trkpt lat="44.85717" lon="5.14836">
        <ele>1041.47</ele>
        <time>2022-02-17T11:44:52.870Z</time>
      </trkpt>
      <trkpt lat="44.85727" lon="5.14857">
        <ele>1034.94</ele>
        <time>2022-02-17T11:45:15.190Z</time>
      </trkpt>
      <trkpt lat="44.8574" lon="5.14875">
        <ele>1029.25</ele>
        <time>2022-02-17T11:45:43.263Z</time>
      </trkpt>
      <trkpt lat="44.85751" lon="5.14896">
        <ele>1022.5</ele>
        <time>2022-02-17T11:46:49.246Z</time>
      </trkpt>
      <trkpt lat="44.85771" lon="5.14946">
        <ele>1007.45</ele>
        <time>2022-02-17T11:48:47.785Z</time>
      </trkpt>
      <trkpt lat="44.85783" lon="5.14971">
        <ele>1001.04</ele>
        <time>2022-02-17T11:49:06.005Z</time>
      </trkpt>
      <trkpt lat="44.85797" lon="5.14988">
        <ele>997.3</ele>
        <time>2022-02-17T11:49:34.843Z</time>
      </trkpt>
      <trkpt lat="44.85796" lon="5.15014">
        <ele>988.66</ele>
        <time>2022-02-17T11:50:05.176Z</time>
      </trkpt>
      <trkpt lat="44.85801" lon="5.15038">
        <ele>980.58</ele>
        <time>2022-02-17T11:51:22.988Z</time>
      </trkpt>
      <trkpt lat="44.85804" lon="5.15064">
        <ele>971.92</ele>
        <time>2022-02-17T11:52:05.580Z</time>
      </trkpt>
      <trkpt lat="44.8581" lon="5.15088">
        <ele>964.99</ele>
        <time>2022-02-17T11:52:33.138Z</time>
      </trkpt>
      <trkpt lat="44.85812" lon="5.15114">
        <ele>958.76</ele>
        <time>2022-02-17T11:53:14.000Z</time>
      </trkpt>
      <trkpt lat="44.85816" lon="5.15136">
        <ele>954.19</ele>
        <time>2022-02-17T11:58:03.999Z</time>
      </trkpt>
      <trkpt lat="44.85832" lon="5.1515">
        <ele>952.06</ele>
        <time>2022-02-17T11:58:22.467Z</time>
      </trkpt>
      <trkpt lat="44.85847" lon="5.15168">
        <ele>949.41</ele>
        <time>2022-02-17T11:58:41.209Z</time>
      </trkpt>
      <trkpt lat="44.85866" lon="5.15184">
        <ele>947.97</ele>
        <time>2022-02-17T11:59:00.223Z</time>
      </trkpt>
      <trkpt lat="44.85887" lon="5.15193">
        <ele>947.98</ele>
        <time>2022-02-17T11:59:18.543Z</time>
      </trkpt>
      <trkpt lat="44.85904" lon="5.15202">
        <ele>947.88</ele>
        <time>2022-02-17T11:59:37.723Z</time>
      </trkpt>
      <trkpt lat="44.85926" lon="5.15204">
        <ele>948.41</ele>
        <time>2022-02-17T11:59:56.748Z</time>
      </trkpt>
      <trkpt lat="44.85947" lon="5.15203">
        <ele>948.84</ele>
        <time>2022-02-17T12:00:15.064Z</time>
      </trkpt>
      <trkpt lat="44.85967" lon="5.15201">
        <ele>949.29</ele>
        <time>2022-02-17T12:00:33.601Z</time>
      </trkpt>
      <trkpt lat="44.85979" lon="5.15199">
        <ele>949.62</ele>
        <time>2022-02-17T12:00:43.058Z</time>
      </trkpt>
      <trkpt lat="44.86" lon="5.15197">
        <ele>950.39</ele>
        <time>2022-02-17T12:01:01.678Z</time>
      </trkpt>
      <trkpt lat="44.86019" lon="5.15204">
        <ele>950.63</ele>
        <time>2022-02-17T12:01:20.507Z</time>
      </trkpt>
      <trkpt lat="44.8604" lon="5.15212">
        <ele>950.69</ele>
        <time>2022-02-17T12:01:39.963Z</time>
      </trkpt>
      <trkpt lat="44.8606" lon="5.15216">
        <ele>951.15</ele>
        <time>2022-02-17T12:01:58.282Z</time>
      </trkpt>
      <trkpt lat="44.86081" lon="5.15221">
        <ele>951.34</ele>
        <time>2022-02-17T12:02:16.718Z</time>
      </trkpt>
      <trkpt lat="44.86104" lon="5.15224">
        <ele>951.96</ele>
        <time>2022-02-17T12:02:34.945Z</time>
      </trkpt>
      <trkpt lat="44.86124" lon="5.15229">
        <ele>952.18</ele>
        <time>2022-02-17T12:02:53.284Z</time>
      </trkpt>
      <trkpt lat="44.86147" lon="5.1524">
        <ele>950.95</ele>
        <time>2022-02-17T12:03:12.165Z</time>
      </trkpt>
      <trkpt lat="44.86168" lon="5.15255">
        <ele>948.34</ele>
        <time>2022-02-17T12:03:30.722Z</time>
      </trkpt>
      <trkpt lat="44.86186" lon="5.1527">
        <ele>944.99</ele>
        <time>2022-02-17T12:03:49.999Z</time>
      </trkpt>
      <trkpt lat="44.86206" lon="5.15285">
        <ele>943.77</ele>
        <time>2022-02-17T12:04:09.219Z</time>
      </trkpt>
      <trkpt lat="44.86226" lon="5.15295">
        <ele>946.19</ele>
        <time>2022-02-17T12:04:27.868Z</time>
      </trkpt>
      <trkpt lat="44.86245" lon="5.15306">
        <ele>948.59</ele>
        <time>2022-02-17T12:04:46.526Z</time>
      </trkpt>
      <trkpt lat="44.86263" lon="5.15314">
        <ele>950.64</ele>
        <time>2022-02-17T12:05:05.122Z</time>
      </trkpt>
      <trkpt lat="44.86283" lon="5.15331">
        <ele>950.37</ele>
        <time>2022-02-17T12:05:23.601Z</time>
      </trkpt>
      <trkpt lat="44.86305" lon="5.15343">
        <ele>949.51</ele>
        <time>2022-02-17T12:05:42.666Z</time>
      </trkpt>
      <trkpt lat="44.86323" lon="5.15349">
        <ele>949.24</ele>
        <time>2022-02-17T12:06:01.381Z</time>
      </trkpt>
      <trkpt lat="44.8634" lon="5.15375">
        <ele>941.76</ele>
        <time>2022-02-17T12:06:19.981Z</time>
      </trkpt>
      <trkpt lat="44.86359" lon="5.15392">
        <ele>939.77</ele>
        <time>2022-02-17T12:06:39.058Z</time>
      </trkpt>
      <trkpt lat="44.86379" lon="5.15395">
        <ele>942.92</ele>
        <time>2022-02-17T12:06:57.340Z</time>
      </trkpt>
      <trkpt lat="44.864" lon="5.1541">
        <ele>945.05</ele>
        <time>2022-02-17T12:07:16.227Z</time>
      </trkpt>
      <trkpt lat="44.86398" lon="5.15427">
        <ele>943</ele>
        <time>2022-02-17T12:07:25.444Z</time>
      </trkpt>
      <trkpt lat="44.86403" lon="5.15453">
        <ele>942.9</ele>
        <time>2022-02-17T12:07:44.704Z</time>
      </trkpt>
      <trkpt lat="44.86387" lon="5.15473">
        <ele>941.33</ele>
        <time>2022-02-17T12:08:03.239Z</time>
      </trkpt>
      <trkpt lat="44.86369" lon="5.15492">
        <ele>941.49</ele>
        <time>2022-02-17T12:08:21.757Z</time>
      </trkpt>
      <trkpt lat="44.8635" lon="5.15496">
        <ele>941.44</ele>
        <time>2022-02-17T12:08:40.005Z</time>
      </trkpt>
      <trkpt lat="44.86329" lon="5.155">
        <ele>942.19</ele>
        <time>2022-02-17T12:08:59.083Z</time>
      </trkpt>
      <trkpt lat="44.8631" lon="5.15504">
        <ele>943.85</ele>
        <time>2022-02-17T12:09:19.021Z</time>
      </trkpt>
      <trkpt lat="44.86289" lon="5.15506">
        <ele>946.13</ele>
        <time>2022-02-17T12:09:38.161Z</time>
      </trkpt>
      <trkpt lat="44.86267" lon="5.15509">
        <ele>948.54</ele>
        <time>2022-02-17T12:09:57.000Z</time>
      </trkpt>
      <trkpt lat="44.8625" lon="5.15496">
        <ele>948.47</ele>
        <time>2022-02-17T12:10:15.285Z</time>
      </trkpt>
      <trkpt lat="44.86231" lon="5.15472">
        <ele>944.04</ele>
        <time>2022-02-17T12:15:28.965Z</time>
      </trkpt>
      <trkpt lat="44.86208" lon="5.15447">
        <ele>938.78</ele>
        <time>2022-02-17T12:15:47.663Z</time>
      </trkpt>
      <trkpt lat="44.86185" lon="5.15437">
        <ele>937.95</ele>
        <time>2022-02-17T12:16:06.044Z</time>
      </trkpt>
      <trkpt lat="44.86163" lon="5.15438">
        <ele>938.31</ele>
        <time>2022-02-17T12:16:24.946Z</time>
      </trkpt>
      <trkpt lat="44.86142" lon="5.15432">
        <ele>935.96</ele>
        <time>2022-02-17T12:16:44.398Z</time>
      </trkpt>
      <trkpt lat="44.86121" lon="5.15436">
        <ele>935.02</ele>
        <time>2022-02-17T12:17:03.886Z</time>
      </trkpt>
      <trkpt lat="44.86102" lon="5.15436">
        <ele>933.2</ele>
        <time>2022-02-17T12:17:23.307Z</time>
      </trkpt>
      <trkpt lat="44.86081" lon="5.1543">
        <ele>929.86</ele>
        <time>2022-02-17T12:17:45.680Z</time>
      </trkpt>
      <trkpt lat="44.86059" lon="5.15426">
        <ele>927.33</ele>
        <time>2022-02-17T12:18:04.378Z</time>
      </trkpt>
      <trkpt lat="44.86038" lon="5.15423">
        <ele>924.89</ele>
        <time>2022-02-17T12:18:23.288Z</time>
      </trkpt>
      <trkpt lat="44.86017" lon="5.1542">
        <ele>922.47</ele>
        <time>2022-02-17T12:18:45.359Z</time>
      </trkpt>
      <trkpt lat="44.85985" lon="5.1541">
        <ele>916.74</ele>
        <time>2022-02-17T12:19:04.012Z</time>
      </trkpt>
      <trkpt lat="44.85973" lon="5.15407">
        <ele>914.58</ele>
        <time>2022-02-17T12:19:13.243Z</time>
      </trkpt>
      <trkpt lat="44.85955" lon="5.15409">
        <ele>913.23</ele>
        <time>2022-02-17T12:19:33.244Z</time>
      </trkpt>
      <trkpt lat="44.85933" lon="5.1541">
        <ele>910.93</ele>
        <time>2022-02-17T12:19:52.118Z</time>
      </trkpt>
      <trkpt lat="44.8591" lon="5.15409">
        <ele>907.33</ele>
        <time>2022-02-17T12:20:11.926Z</time>
      </trkpt>
      <trkpt lat="44.85889" lon="5.15414">
        <ele>903.97</ele>
        <time>2022-02-17T12:20:30.725Z</time>
      </trkpt>
      <trkpt lat="44.8587" lon="5.15421">
        <ele>900.45</ele>
        <time>2022-02-17T12:20:50.682Z</time>
      </trkpt>
      <trkpt lat="44.8585" lon="5.15427">
        <ele>896.55</ele>
        <time>2022-02-17T12:21:12.351Z</time>
      </trkpt>
      <trkpt lat="44.85825" lon="5.15433">
        <ele>892.62</ele>
        <time>2022-02-17T12:21:31.266Z</time>
      </trkpt>
      <trkpt lat="44.85801" lon="5.15432">
        <ele>888.28</ele>
        <time>2022-02-17T12:21:51.069Z</time>
      </trkpt>
      <trkpt lat="44.85779" lon="5.15432">
        <ele>885.13</ele>
        <time>2022-02-17T12:22:09.267Z</time>
      </trkpt>
      <trkpt lat="44.8576" lon="5.15438">
        <ele>885.09</ele>
        <time>2022-02-17T12:22:29.623Z</time>
      </trkpt>
      <trkpt lat="44.85739" lon="5.15447">
        <ele>887.51</ele>
        <time>2022-02-17T12:22:48.184Z</time>
      </trkpt>
      <trkpt lat="44.85717" lon="5.15451">
        <ele>889.16</ele>
        <time>2022-02-17T12:23:06.737Z</time>
      </trkpt>
      <trkpt lat="44.85691" lon="5.15442">
        <ele>886.32</ele>
        <time>2022-02-17T12:23:25.926Z</time>
      </trkpt>
      <trkpt lat="44.85671" lon="5.1545">
        <ele>888.05</ele>
        <time>2022-02-17T12:23:44.044Z</time>
      </trkpt>
      <trkpt lat="44.85652" lon="5.15454">
        <ele>888</ele>
        <time>2022-02-17T12:24:08.339Z</time>
      </trkpt>
      <trkpt lat="44.85629" lon="5.15428">
        <ele>885.08</ele>
        <time>2022-02-17T12:26:01.824Z</time>
      </trkpt>
      <trkpt lat="44.85611" lon="5.15438">
        <ele>884.35</ele>
        <time>2022-02-17T12:26:29.860Z</time>
      </trkpt>
      <trkpt lat="44.85592" lon="5.1544">
        <ele>883.33</ele>
        <time>2022-02-17T12:26:50.766Z</time>
      </trkpt>
      <trkpt lat="44.85571" lon="5.15448">
        <ele>881.75</ele>
        <time>2022-02-17T12:27:09.863Z</time>
      </trkpt>
      <trkpt lat="44.85553" lon="5.15455">
        <ele>879.62</ele>
        <time>2022-02-17T12:27:32.620Z</time>
      </trkpt>
      <trkpt lat="44.85532" lon="5.1546">
        <ele>876.3</ele>
        <time>2022-02-17T12:27:52.000Z</time>
      </trkpt>
      <trkpt lat="44.85511" lon="5.15462">
        <ele>872.57</ele>
        <time>2022-02-17T12:28:46.646Z</time>
      </trkpt>
      <trkpt lat="44.85492" lon="5.15461">
        <ele>869.51</ele>
        <time>2022-02-17T12:30:16.000Z</time>
      </trkpt>
      <trkpt lat="44.85474" lon="5.15464">
        <ele>865.33</ele>
        <time>2022-02-17T12:31:07.807Z</time>
      </trkpt>
      <trkpt lat="44.85445" lon="5.15471">
        <ele>859.69</ele>
        <time>2022-02-17T12:31:26.261Z</time>
      </trkpt>
      <trkpt lat="44.85427" lon="5.15466">
        <ele>857.12</ele>
        <time>2022-02-17T12:31:59.022Z</time>
      </trkpt>
      <trkpt lat="44.85404" lon="5.15455">
        <ele>854.77</ele>
        <time>2022-02-17T12:32:17.458Z</time>
      </trkpt>
      <trkpt lat="44.85384" lon="5.15447">
        <ele>853.89</ele>
        <time>2022-02-17T12:32:37.564Z</time>
      </trkpt>
      <trkpt lat="44.85368" lon="5.15433">
        <ele>852.02</ele>
        <time>2022-02-17T12:33:04.601Z</time>
      </trkpt>
      <trkpt lat="44.85351" lon="5.15421">
        <ele>850.17</ele>
        <time>2022-02-17T12:33:24.020Z</time>
      </trkpt>
      <trkpt lat="44.85329" lon="5.15413">
        <ele>848.06</ele>
        <time>2022-02-17T12:33:43.138Z</time>
      </trkpt>
      <trkpt lat="44.85309" lon="5.154">
        <ele>844.37</ele>
        <time>2022-02-17T12:34:04.210Z</time>
      </trkpt>
      <trkpt lat="44.8529" lon="5.15393">
        <ele>841.58</ele>
        <time>2022-02-17T12:34:27.186Z</time>
      </trkpt>
      <trkpt lat="44.8527" lon="5.15379">
        <ele>838.31</ele>
        <time>2022-02-17T12:34:45.886Z</time>
      </trkpt>
      <trkpt lat="44.8521" lon="5.15362">
        <ele>833.96</ele>
        <time>2022-02-17T12:36:27.937Z</time>
      </trkpt>
      <trkpt lat="44.85173" lon="5.15338">
        <ele>829.82</ele>
        <time>2022-02-17T12:36:46.049Z</time>
      </trkpt>
      <trkpt lat="44.8515" lon="5.15333">
        <ele>828.37</ele>
        <time>2022-02-17T12:37:07.284Z</time>
      </trkpt>
      <trkpt lat="44.85125" lon="5.15324">
        <ele>826.13</ele>
        <time>2022-02-17T12:37:28.961Z</time>
      </trkpt>
      <trkpt lat="44.85103" lon="5.15318">
        <ele>824.5</ele>
        <time>2022-02-17T12:37:52.820Z</time>
      </trkpt>
      <trkpt lat="44.85086" lon="5.15311">
        <ele>823.14</ele>
        <time>2022-02-17T12:38:11.207Z</time>
      </trkpt>
      <trkpt lat="44.85065" lon="5.15311">
        <ele>822.28</ele>
        <time>2022-02-17T12:38:29.999Z</time>
      </trkpt>
      <trkpt lat="44.85043" lon="5.15301">
        <ele>820.35</ele>
        <time>2022-02-17T12:38:54.983Z</time>
      </trkpt>
      <trkpt lat="44.8502" lon="5.15282">
        <ele>819.59</ele>
        <time>2022-02-17T12:41:17.147Z</time>
      </trkpt>
      <trkpt lat="44.85019" lon="5.1525">
        <ele>821.19</ele>
        <time>2022-02-17T12:41:35.922Z</time>
      </trkpt>
      <trkpt lat="44.85011" lon="5.15243">
        <ele>821.18</ele>
        <time>2022-02-17T12:41:58.080Z</time>
      </trkpt>
      <trkpt lat="44.8499" lon="5.15234">
        <ele>820.35</ele>
        <time>2022-02-17T12:42:19.058Z</time>
      </trkpt>
      <trkpt lat="44.84969" lon="5.15226">
        <ele>818.79</ele>
        <time>2022-02-17T12:42:40.332Z</time>
      </trkpt>
      <trkpt lat="44.84952" lon="5.15217">
        <ele>816.9</ele>
        <time>2022-02-17T12:43:00.426Z</time>
      </trkpt>
      <trkpt lat="44.84929" lon="5.15203">
        <ele>813.87</ele>
        <time>2022-02-17T12:43:19.167Z</time>
      </trkpt>
      <trkpt lat="44.84908" lon="5.15207">
        <ele>811.27</ele>
        <time>2022-02-17T12:43:40.590Z</time>
      </trkpt>
      <trkpt lat="44.84882" lon="5.15202">
        <ele>809.08</ele>
        <time>2022-02-17T12:43:59.200Z</time>
      </trkpt>
      <trkpt lat="44.84866" lon="5.15187">
        <ele>808.7</ele>
        <time>2022-02-17T12:44:19.827Z</time>
      </trkpt>
      <trkpt lat="44.84852" lon="5.15169">
        <ele>810.35</ele>
        <time>2022-02-17T12:44:39.944Z</time>
      </trkpt>
      <trkpt lat="44.84826" lon="5.1516">
        <ele>811.1</ele>
        <time>2022-02-17T12:44:59.001Z</time>
      </trkpt>
      <trkpt lat="44.84805" lon="5.15167">
        <ele>808.97</ele>
        <time>2022-02-17T12:45:17.241Z</time>
      </trkpt>
      <trkpt lat="44.84785" lon="5.15184">
        <ele>805.19</ele>
        <time>2022-02-17T12:45:35.930Z</time>
      </trkpt>
      <trkpt lat="44.84767" lon="5.15208">
        <ele>800.99</ele>
        <time>2022-02-17T12:45:54.867Z</time>
      </trkpt>
      <trkpt lat="44.84748" lon="5.15227">
        <ele>798.78</ele>
        <time>2022-02-17T12:46:14.970Z</time>
      </trkpt>
      <trkpt lat="44.84725" lon="5.15231">
        <ele>797.64</ele>
        <time>2022-02-17T12:46:39.547Z</time>
      </trkpt>
      <trkpt lat="44.84693" lon="5.15229">
        <ele>796.29</ele>
        <time>2022-02-17T12:46:58.390Z</time>
      </trkpt>
      <trkpt lat="44.84669" lon="5.15225">
        <ele>794.48</ele>
        <time>2022-02-17T12:47:17.164Z</time>
      </trkpt>
      <trkpt lat="44.84645" lon="5.15219">
        <ele>791.66</ele>
        <time>2022-02-17T12:47:35.908Z</time>
      </trkpt>
      <trkpt lat="44.84626" lon="5.15208">
        <ele>788.98</ele>
        <time>2022-02-17T12:47:55.027Z</time>
      </trkpt>
      <trkpt lat="44.84608" lon="5.15196">
        <ele>787.56</ele>
        <time>2022-02-17T12:48:15.926Z</time>
      </trkpt>
      <trkpt lat="44.84588" lon="5.15186">
        <ele>787.27</ele>
        <time>2022-02-17T12:48:40.224Z</time>
      </trkpt>
      <trkpt lat="44.84554" lon="5.15183">
        <ele>787.41</ele>
        <time>2022-02-17T12:48:59.538Z</time>
      </trkpt>
      <trkpt lat="44.8454" lon="5.15187">
        <ele>787.06</ele>
        <time>2022-02-17T12:49:08.818Z</time>
      </trkpt>
      <trkpt lat="44.84522" lon="5.15193">
        <ele>786.25</ele>
        <time>2022-02-17T12:49:33.348Z</time>
      </trkpt>
      <trkpt lat="44.84501" lon="5.15209">
        <ele>783.56</ele>
        <time>2022-02-17T12:49:55.722Z</time>
      </trkpt>
      <trkpt lat="44.84486" lon="5.15242">
        <ele>781.97</ele>
        <time>2022-02-17T12:50:14.520Z</time>
      </trkpt>
      <trkpt lat="44.84467" lon="5.15264">
        <ele>782.71</ele>
        <time>2022-02-17T12:50:32.745Z</time>
      </trkpt>
      <trkpt lat="44.84445" lon="5.15264">
        <ele>782</ele>
        <time>2022-02-17T12:50:51.602Z</time>
      </trkpt>
      <trkpt lat="44.84424" lon="5.15263">
        <ele>781.51</ele>
        <time>2022-02-17T12:51:10.703Z</time>
      </trkpt>
      <trkpt lat="44.84401" lon="5.15262">
        <ele>781.2</ele>
        <time>2022-02-17T12:51:29.999Z</time>
      </trkpt>
      <trkpt lat="44.84377" lon="5.15251">
        <ele>778.6</ele>
        <time>2022-02-17T12:51:49.938Z</time>
      </trkpt>
      <trkpt lat="44.84356" lon="5.15237">
        <ele>775.62</ele>
        <time>2022-02-17T12:52:08.857Z</time>
      </trkpt>
      <trkpt lat="44.84337" lon="5.15225">
        <ele>774.36</ele>
        <time>2022-02-17T12:52:26.946Z</time>
      </trkpt>
      <trkpt lat="44.84317" lon="5.15211">
        <ele>774.38</ele>
        <time>2022-02-17T12:52:46.083Z</time>
      </trkpt>
      <trkpt lat="44.84296" lon="5.15195">
        <ele>773.76</ele>
        <time>2022-02-17T12:53:04.982Z</time>
      </trkpt>
      <trkpt lat="44.84275" lon="5.15185">
        <ele>773.16</ele>
        <time>2022-02-17T12:53:23.999Z</time>
      </trkpt>
      <trkpt lat="44.84253" lon="5.15177">
        <ele>772.39</ele>
        <time>2022-02-17T12:53:43.204Z</time>
      </trkpt>
      <trkpt lat="44.84234" lon="5.15168">
        <ele>771.59</ele>
        <time>2022-02-17T12:54:01.803Z</time>
      </trkpt>
      <trkpt lat="44.84216" lon="5.15162">
        <ele>772.13</ele>
        <time>2022-02-17T12:54:21.041Z</time>
      </trkpt>
      <trkpt lat="44.84196" lon="5.15164">
        <ele>775.27</ele>
        <time>2022-02-17T12:54:39.344Z</time>
      </trkpt>
      <trkpt lat="44.84175" lon="5.15156">
        <ele>777.32</ele>
        <time>2022-02-17T12:54:58.269Z</time>
      </trkpt>
      <trkpt lat="44.84156" lon="5.15156">
        <ele>781.13</ele>
        <time>2022-02-17T12:55:17.045Z</time>
      </trkpt>
      <trkpt lat="44.84136" lon="5.15154">
        <ele>786.05</ele>
        <time>2022-02-17T12:55:37.025Z</time>
      </trkpt>
      <trkpt lat="44.84117" lon="5.15141">
        <ele>787.74</ele>
        <time>2022-02-17T12:55:56.999Z</time>
      </trkpt>
      <trkpt lat="44.84104" lon="5.15137">
        <ele>789.3</ele>
        <time>2022-02-17T12:56:07.354Z</time>
      </trkpt>
      <trkpt lat="44.84084" lon="5.15138">
        <ele>792.96</ele>
        <time>2022-02-17T12:56:32.187Z</time>
      </trkpt>
      <trkpt lat="44.84063" lon="5.15137">
        <ele>795</ele>
        <time>2022-02-17T12:56:51.465Z</time>
      </trkpt>
      <trkpt lat="44.84045" lon="5.15129">
        <ele>794.53</ele>
        <time>2022-02-17T12:57:12.999Z</time>
      </trkpt>
      <trkpt lat="44.84027" lon="5.15116">
        <ele>794.34</ele>
        <time>2022-02-17T12:57:31.261Z</time>
      </trkpt>
      <trkpt lat="44.84011" lon="5.15097">
        <ele>796.24</ele>
        <time>2022-02-17T12:57:49.999Z</time>
      </trkpt>
      <trkpt lat="44.83999" lon="5.15077">
        <ele>799.54</ele>
        <time>2022-02-17T12:58:42.000Z</time>
      </trkpt>
      <trkpt lat="44.8398" lon="5.15097">
        <ele>803.11</ele>
        <time>2022-02-17T13:03:57.141Z</time>
      </trkpt>
      <trkpt lat="44.83964" lon="5.15115">
        <ele>805.65</ele>
        <time>2022-02-17T13:04:16.090Z</time>
      </trkpt>
      <trkpt lat="44.83948" lon="5.15133">
        <ele>807.44</ele>
        <time>2022-02-17T13:04:37.069Z</time>
      </trkpt>
      <trkpt lat="44.83933" lon="5.1515">
        <ele>807.85</ele>
        <time>2022-02-17T13:04:56.648Z</time>
      </trkpt>
      <trkpt lat="44.83918" lon="5.15167">
        <ele>806.97</ele>
        <time>2022-02-17T13:05:20.742Z</time>
      </trkpt>
      <trkpt lat="44.83898" lon="5.15183">
        <ele>805.06</ele>
        <time>2022-02-17T13:05:42.227Z</time>
      </trkpt>
      <trkpt lat="44.83872" lon="5.15199">
        <ele>802.07</ele>
        <time>2022-02-17T13:06:01.963Z</time>
      </trkpt>
      <trkpt lat="44.83852" lon="5.15211">
        <ele>799.77</ele>
        <time>2022-02-17T13:06:31.268Z</time>
      </trkpt>
      <trkpt lat="44.83833" lon="5.15207">
        <ele>798.29</ele>
        <time>2022-02-17T13:06:50.661Z</time>
      </trkpt>
      <trkpt lat="44.83816" lon="5.15202">
        <ele>796.59</ele>
        <time>2022-02-17T13:07:10.699Z</time>
      </trkpt>
      <trkpt lat="44.83798" lon="5.15208">
        <ele>794.12</ele>
        <time>2022-02-17T13:07:38.949Z</time>
      </trkpt>
      <trkpt lat="44.83769" lon="5.15238">
        <ele>791.18</ele>
        <time>2022-02-17T13:07:57.545Z</time>
      </trkpt>
      <trkpt lat="44.83751" lon="5.1525">
        <ele>790.06</ele>
        <time>2022-02-17T13:08:20.681Z</time>
      </trkpt>
      <trkpt lat="44.83731" lon="5.15254">
        <ele>789.35</ele>
        <time>2022-02-17T13:08:39.618Z</time>
      </trkpt>
      <trkpt lat="44.83698" lon="5.15246">
        <ele>789.08</ele>
        <time>2022-02-17T13:09:44.718Z</time>
      </trkpt>
      <trkpt lat="44.83683" lon="5.15242">
        <ele>788.86</ele>
        <time>2022-02-17T13:09:53.999Z</time>
      </trkpt>
      <trkpt lat="44.83661" lon="5.15236">
        <ele>787.75</ele>
        <time>2022-02-17T13:10:24.089Z</time>
      </trkpt>
      <trkpt lat="44.83617" lon="5.15218">
        <ele>782.34</ele>
        <time>2022-02-17T13:10:42.564Z</time>
      </trkpt>
      <trkpt lat="44.83591" lon="5.15222">
        <ele>778.56</ele>
        <time>2022-02-17T13:11:02.943Z</time>
      </trkpt>
      <trkpt lat="44.8356" lon="5.15238">
        <ele>775.26</ele>
        <time>2022-02-17T13:11:22.329Z</time>
      </trkpt>
      <trkpt lat="44.8354" lon="5.15254">
        <ele>772.37</ele>
        <time>2022-02-17T13:11:41.087Z</time>
      </trkpt>
      <trkpt lat="44.83522" lon="5.15262">
        <ele>768.42</ele>
        <time>2022-02-17T13:12:03.983Z</time>
      </trkpt>
      <trkpt lat="44.83499" lon="5.15252">
        <ele>763.64</ele>
        <time>2022-02-17T13:12:24.141Z</time>
      </trkpt>
      <trkpt lat="44.83479" lon="5.15237">
        <ele>759.86</ele>
        <time>2022-02-17T13:12:42.619Z</time>
      </trkpt>
      <trkpt lat="44.83463" lon="5.15219">
        <ele>758.61</ele>
        <time>2022-02-17T13:13:07.609Z</time>
      </trkpt>
      <trkpt lat="44.83444" lon="5.15202">
        <ele>758</ele>
        <time>2022-02-17T13:13:25.867Z</time>
      </trkpt>
      <trkpt lat="44.83424" lon="5.15179">
        <ele>758.71</ele>
        <time>2022-02-17T13:13:44.867Z</time>
      </trkpt>
      <trkpt lat="44.8341" lon="5.15161">
        <ele>757.96</ele>
        <time>2022-02-17T13:14:03.680Z</time>
      </trkpt>
      <trkpt lat="44.83397" lon="5.15138">
        <ele>755.6</ele>
        <time>2022-02-17T13:14:25.104Z</time>
      </trkpt>
      <trkpt lat="44.8338" lon="5.15122">
        <ele>751.31</ele>
        <time>2022-02-17T13:14:48.907Z</time>
      </trkpt>
      <trkpt lat="44.8336" lon="5.15103">
        <ele>747.52</ele>
        <time>2022-02-17T13:15:07.847Z</time>
      </trkpt>
      <trkpt lat="44.83339" lon="5.15077">
        <ele>745.98</ele>
        <time>2022-02-17T13:15:38.902Z</time>
      </trkpt>
      <trkpt lat="44.83312" lon="5.15052">
        <ele>743.72</ele>
        <time>2022-02-17T13:15:58.879Z</time>
      </trkpt>
      <trkpt lat="44.83293" lon="5.15042">
        <ele>741.98</ele>
        <time>2022-02-17T13:16:19.368Z</time>
      </trkpt>
      <trkpt lat="44.83273" lon="5.1503">
        <ele>740.33</ele>
        <time>2022-02-17T13:16:38.368Z</time>
      </trkpt>
      <trkpt lat="44.83247" lon="5.15024">
        <ele>737.06</ele>
        <time>2022-02-17T13:16:59.704Z</time>
      </trkpt>
      <trkpt lat="44.83226" lon="5.15018">
        <ele>734.33</ele>
        <time>2022-02-17T13:17:18.241Z</time>
      </trkpt>
      <trkpt lat="44.83217" lon="5.15016">
        <ele>733.14</ele>
        <time>2022-02-17T13:17:28.000Z</time>
      </trkpt>
      <trkpt lat="44.83195" lon="5.1501">
        <ele>730.92</ele>
        <time>2022-02-17T13:17:53.763Z</time>
      </trkpt>
      <trkpt lat="44.83176" lon="5.15003">
        <ele>728.7</ele>
        <time>2022-02-17T13:18:12.000Z</time>
      </trkpt>
      <trkpt lat="44.83154" lon="5.14994">
        <ele>724.49</ele>
        <time>2022-02-17T13:18:30.500Z</time>
      </trkpt>
      <trkpt lat="44.83135" lon="5.14984">
        <ele>719.52</ele>
        <time>2022-02-17T13:18:49.100Z</time>
      </trkpt>
      <trkpt lat="44.83116" lon="5.14972">
        <ele>715.88</ele>
        <time>2022-02-17T13:19:07.780Z</time>
      </trkpt>
      <trkpt lat="44.83096" lon="5.14959">
        <ele>713.61</ele>
        <time>2022-02-17T13:19:26.000Z</time>
      </trkpt>
      <trkpt lat="44.83078" lon="5.14939">
        <ele>715.33</ele>
        <time>2022-02-17T13:19:46.244Z</time>
      </trkpt>
      <trkpt lat="44.8307" lon="5.14916">
        <ele>715.48</ele>
        <time>2022-02-17T13:20:05.105Z</time>
      </trkpt>
      <trkpt lat="44.83054" lon="5.14893">
        <ele>704.01</ele>
        <time>2022-02-17T13:20:24.144Z</time>
      </trkpt>
      <trkpt lat="44.83031" lon="5.14886">
        <ele>696.43</ele>
        <time>2022-02-17T13:20:43.127Z</time>
      </trkpt>
      <trkpt lat="44.8301" lon="5.14882">
        <ele>692.44</ele>
        <time>2022-02-17T13:21:02.247Z</time>
      </trkpt>
      <trkpt lat="44.82991" lon="5.14874">
        <ele>690.64</ele>
        <time>2022-02-17T13:21:21.000Z</time>
      </trkpt>
      <trkpt lat="44.8297" lon="5.14866">
        <ele>692.94</ele>
        <time>2022-02-17T13:21:42.524Z</time>
      </trkpt>
      <trkpt lat="44.8295" lon="5.14854">
        <ele>697.99</ele>
        <time>2022-02-17T13:22:02.682Z</time>
      </trkpt>
      <trkpt lat="44.82926" lon="5.14842">
        <ele>703.74</ele>
        <time>2022-02-17T13:22:21.602Z</time>
      </trkpt>
      <trkpt lat="44.82904" lon="5.14831">
        <ele>703.41</ele>
        <time>2022-02-17T13:22:40.478Z</time>
      </trkpt>
      <trkpt lat="44.82886" lon="5.1482">
        <ele>699.11</ele>
        <time>2022-02-17T13:22:59.318Z</time>
      </trkpt>
      <trkpt lat="44.82866" lon="5.14805">
        <ele>694.71</ele>
        <time>2022-02-17T13:23:18.127Z</time>
      </trkpt>
      <trkpt lat="44.82845" lon="5.14788">
        <ele>695.59</ele>
        <time>2022-02-17T13:23:36.905Z</time>
      </trkpt>
      <trkpt lat="44.82826" lon="5.14777">
        <ele>698.57</ele>
        <time>2022-02-17T13:23:55.942Z</time>
      </trkpt>
      <trkpt lat="44.82805" lon="5.14772">
        <ele>699.48</ele>
        <time>2022-02-17T13:24:14.486Z</time>
      </trkpt>
      <trkpt lat="44.82781" lon="5.14778">
        <ele>697.79</ele>
        <time>2022-02-17T13:24:33.424Z</time>
      </trkpt>
      <trkpt lat="44.82774" lon="5.14785">
        <ele>696.96</ele>
        <time>2022-02-17T13:24:44.443Z</time>
      </trkpt>
      <trkpt lat="44.82751" lon="5.14782">
        <ele>696.74</ele>
        <time>2022-02-17T13:25:02.999Z</time>
      </trkpt>
      <trkpt lat="44.82728" lon="5.14776">
        <ele>698.36</ele>
        <time>2022-02-17T13:25:21.639Z</time>
      </trkpt>
      <trkpt lat="44.82706" lon="5.14783">
        <ele>700.06</ele>
        <time>2022-02-17T13:25:39.999Z</time>
      </trkpt>
      <trkpt lat="44.82685" lon="5.14789">
        <ele>701.32</ele>
        <time>2022-02-17T13:25:58.884Z</time>
      </trkpt>
      <trkpt lat="44.82665" lon="5.14796">
        <ele>701.3</ele>
        <time>2022-02-17T13:26:20.722Z</time>
      </trkpt>
      <trkpt lat="44.82646" lon="5.14807">
        <ele>700.15</ele>
        <time>2022-02-17T13:26:43.141Z</time>
      </trkpt>
      <trkpt lat="44.82619" lon="5.14817">
        <ele>698.71</ele>
        <time>2022-02-17T13:27:09.145Z</time>
      </trkpt>
      <trkpt lat="44.82586" lon="5.14834">
        <ele>693.15</ele>
        <time>2022-02-17T13:27:27.881Z</time>
      </trkpt>
      <trkpt lat="44.82561" lon="5.14836">
        <ele>687.83</ele>
        <time>2022-02-17T13:27:47.060Z</time>
      </trkpt>
      <trkpt lat="44.82539" lon="5.14834">
        <ele>681.84</ele>
        <time>2022-02-17T13:28:05.877Z</time>
      </trkpt>
      <trkpt lat="44.82516" lon="5.14821">
        <ele>678.57</ele>
        <time>2022-02-17T13:28:24.531Z</time>
      </trkpt>
      <trkpt lat="44.82497" lon="5.14808">
        <ele>677.98</ele>
        <time>2022-02-17T13:28:43.171Z</time>
      </trkpt>
      <trkpt lat="44.82476" lon="5.14792">
        <ele>678.86</ele>
        <time>2022-02-17T13:29:02.185Z</time>
      </trkpt>
      <trkpt lat="44.82456" lon="5.14776">
        <ele>679</ele>
        <time>2022-02-17T13:29:20.941Z</time>
      </trkpt>
      <trkpt lat="44.82437" lon="5.14762">
        <ele>677.52</ele>
        <time>2022-02-17T13:29:39.507Z</time>
      </trkpt>
      <trkpt lat="44.82417" lon="5.14755">
        <ele>674.38</ele>
        <time>2022-02-17T13:30:00.586Z</time>
      </trkpt>
      <trkpt lat="44.82402" lon="5.14732">
        <ele>674.77</ele>
        <time>2022-02-17T13:30:19.482Z</time>
      </trkpt>
      <trkpt lat="44.8239" lon="5.14704">
        <ele>675.79</ele>
        <time>2022-02-17T13:30:47.959Z</time>
      </trkpt>
      <trkpt lat="44.82372" lon="5.14684">
        <ele>673.35</ele>
        <time>2022-02-17T13:31:08.907Z</time>
      </trkpt>
      <trkpt lat="44.82363" lon="5.14713">
        <ele>670.04</ele>
        <time>2022-02-17T13:31:27.462Z</time>
      </trkpt>
      <trkpt lat="44.82358" lon="5.14738">
        <ele>666.58</ele>
        <time>2022-02-17T13:31:47.085Z</time>
      </trkpt>
      <trkpt lat="44.82349" lon="5.14752">
        <ele>663.59</ele>
        <time>2022-02-17T13:31:56.392Z</time>
      </trkpt>
      <trkpt lat="44.82335" lon="5.14773">
        <ele>658.66</ele>
        <time>2022-02-17T13:32:18.202Z</time>
      </trkpt>
      <trkpt lat="44.82316" lon="5.14786">
        <ele>653.72</ele>
        <time>2022-02-17T13:32:36.801Z</time>
      </trkpt>
      <trkpt lat="44.82294" lon="5.14798">
        <ele>647.73</ele>
        <time>2022-02-17T13:32:55.660Z</time>
      </trkpt>
      <trkpt lat="44.82276" lon="5.14797">
        <ele>644.45</ele>
        <time>2022-02-17T13:33:17.998Z</time>
      </trkpt>
      <trkpt lat="44.82258" lon="5.14776">
        <ele>643.46</ele>
        <time>2022-02-17T13:33:44.342Z</time>
      </trkpt>
      <trkpt lat="44.82246" lon="5.14737">
        <ele>641.87</ele>
        <time>2022-02-17T13:34:03.000Z</time>
      </trkpt>
      <trkpt lat="44.82233" lon="5.14715">
        <ele>636.39</ele>
        <time>2022-02-17T13:34:21.838Z</time>
      </trkpt>
      <trkpt lat="44.82216" lon="5.14711">
        <ele>630.37</ele>
        <time>2022-02-17T13:34:44.909Z</time>
      </trkpt>
      <trkpt lat="44.82196" lon="5.14696">
        <ele>626.66</ele>
        <time>2022-02-17T13:35:06.228Z</time>
      </trkpt>
      <trkpt lat="44.82175" lon="5.14687">
        <ele>624.87</ele>
        <time>2022-02-17T13:35:28.042Z</time>
      </trkpt>
      <trkpt lat="44.82149" lon="5.14672">
        <ele>626.77</ele>
        <time>2022-02-17T13:35:47.341Z</time>
      </trkpt>
      <trkpt lat="44.82124" lon="5.14661">
        <ele>627.53</ele>
        <time>2022-02-17T13:36:06.367Z</time>
      </trkpt>
      <trkpt lat="44.82104" lon="5.14655">
        <ele>627.35</ele>
        <time>2022-02-17T13:36:31.586Z</time>
      </trkpt>
      <trkpt lat="44.82072" lon="5.14649">
        <ele>625.54</ele>
        <time>2022-02-17T13:36:50.244Z</time>
      </trkpt>
      <trkpt lat="44.82045" lon="5.14643">
        <ele>624.72</ele>
        <time>2022-02-17T13:37:09.003Z</time>
      </trkpt>
      <trkpt lat="44.8203" lon="5.1462">
        <ele>625</ele>
        <time>2022-02-17T13:37:27.647Z</time>
      </trkpt>
      <trkpt lat="44.8202" lon="5.14595">
        <ele>625.31</ele>
        <time>2022-02-17T13:37:46.170Z</time>
      </trkpt>
      <trkpt lat="44.82004" lon="5.14571">
        <ele>625.81</ele>
        <time>2022-02-17T13:38:04.784Z</time>
      </trkpt>
      <trkpt lat="44.81996" lon="5.14543">
        <ele>626.01</ele>
        <time>2022-02-17T13:38:23.124Z</time>
      </trkpt>
      <trkpt lat="44.81987" lon="5.14513">
        <ele>624.96</ele>
        <time>2022-02-17T13:38:45.743Z</time>
      </trkpt>
      <trkpt lat="44.81972" lon="5.14487">
        <ele>622.83</ele>
        <time>2022-02-17T13:39:04.107Z</time>
      </trkpt>
      <trkpt lat="44.8196" lon="5.14473">
        <ele>620.84</ele>
        <time>2022-02-17T13:39:13.361Z</time>
      </trkpt>
      <trkpt lat="44.81939" lon="5.14452">
        <ele>619.04</ele>
        <time>2022-02-17T13:39:32.446Z</time>
      </trkpt>
      <trkpt lat="44.81922" lon="5.14439">
        <ele>618.68</ele>
        <time>2022-02-17T13:39:51.945Z</time>
      </trkpt>
      <trkpt lat="44.81897" lon="5.1443">
        <ele>616.8</ele>
        <time>2022-02-17T13:40:10.301Z</time>
      </trkpt>
      <trkpt lat="44.81872" lon="5.1442">
        <ele>615.58</ele>
        <time>2022-02-17T13:40:29.961Z</time>
      </trkpt>
      <trkpt lat="44.81848" lon="5.14418">
        <ele>612.04</ele>
        <time>2022-02-17T13:40:48.920Z</time>
      </trkpt>
      <trkpt lat="44.81827" lon="5.14411">
        <ele>610.44</ele>
        <time>2022-02-17T13:41:08.910Z</time>
      </trkpt>
      <trkpt lat="44.81803" lon="5.14401">
        <ele>608.93</ele>
        <time>2022-02-17T13:41:27.787Z</time>
      </trkpt>
      <trkpt lat="44.81782" lon="5.14396">
        <ele>607</ele>
        <time>2022-02-17T13:41:46.725Z</time>
      </trkpt>
      <trkpt lat="44.81762" lon="5.14384">
        <ele>607.51</ele>
        <time>2022-02-17T13:42:05.081Z</time>
      </trkpt>
      <trkpt lat="44.81739" lon="5.14384">
        <ele>605.73</ele>
        <time>2022-02-17T13:42:24.140Z</time>
      </trkpt>
      <trkpt lat="44.81714" lon="5.14381">
        <ele>605.57</ele>
        <time>2022-02-17T13:42:43.643Z</time>
      </trkpt>
      <trkpt lat="44.81691" lon="5.14377">
        <ele>606.33</ele>
        <time>2022-02-17T13:43:02.361Z</time>
      </trkpt>
      <trkpt lat="44.81668" lon="5.14377">
        <ele>606.3</ele>
        <time>2022-02-17T13:43:21.201Z</time>
      </trkpt>
      <trkpt lat="44.81645" lon="5.14372">
        <ele>607.91</ele>
        <time>2022-02-17T13:43:40.618Z</time>
      </trkpt>
      <trkpt lat="44.81623" lon="5.14383">
        <ele>605.93</ele>
        <time>2022-02-17T13:44:00.108Z</time>
      </trkpt>
      <trkpt lat="44.81601" lon="5.14393">
        <ele>604.61</ele>
        <time>2022-02-17T13:44:18.947Z</time>
      </trkpt>
      <trkpt lat="44.81576" lon="5.14395">
        <ele>603.96</ele>
        <time>2022-02-17T13:44:37.823Z</time>
      </trkpt>
      <trkpt lat="44.81553" lon="5.14392">
        <ele>603.39</ele>
        <time>2022-02-17T13:44:56.700Z</time>
      </trkpt>
      <trkpt lat="44.8153" lon="5.14389">
        <ele>602.39</ele>
        <time>2022-02-17T13:45:15.900Z</time>
      </trkpt>
      <trkpt lat="44.81507" lon="5.14381">
        <ele>601.99</ele>
        <time>2022-02-17T13:45:34.985Z</time>
      </trkpt>
      <trkpt lat="44.81486" lon="5.14365">
        <ele>603.4</ele>
        <time>2022-02-17T13:45:54.225Z</time>
      </trkpt>
      <trkpt lat="44.81474" lon="5.14363">
        <ele>602.01</ele>
        <time>2022-02-17T13:46:03.241Z</time>
      </trkpt>
      <trkpt lat="44.81455" lon="5.1435">
        <ele>601.94</ele>
        <time>2022-02-17T13:46:21.865Z</time>
      </trkpt>
      <trkpt lat="44.8143" lon="5.1434">
        <ele>600.69</ele>
        <time>2022-02-17T13:46:40.459Z</time>
      </trkpt>
      <trkpt lat="44.8141" lon="5.14328">
        <ele>602.09</ele>
        <time>2022-02-17T13:46:59.140Z</time>
      </trkpt>
      <trkpt lat="44.81389" lon="5.14325">
        <ele>602.28</ele>
        <time>2022-02-17T13:47:17.809Z</time>
      </trkpt>
      <trkpt lat="44.81367" lon="5.14328">
        <ele>601.45</ele>
        <time>2022-02-17T13:47:36.265Z</time>
      </trkpt>
      <trkpt lat="44.81342" lon="5.14334">
        <ele>599.96</ele>
        <time>2022-02-17T13:47:55.027Z</time>
      </trkpt>
      <trkpt lat="44.81321" lon="5.14337">
        <ele>598.73</ele>
        <time>2022-02-17T13:48:29.999Z</time>
      </trkpt>
      <trkpt lat="44.8132" lon="5.14334">
        <ele>599.65</ele>
        <time>2022-02-17T13:49:42.981Z</time>
      </trkpt>
      <trkpt lat="44.81294" lon="5.14335">
        <ele>598.75</ele>
        <time>2022-02-17T13:50:01.864Z</time>
      </trkpt>
      <trkpt lat="44.8127" lon="5.14348">
        <ele>595.5</ele>
        <time>2022-02-17T13:50:20.742Z</time>
      </trkpt>
      <trkpt lat="44.81245" lon="5.14352">
        <ele>595.2</ele>
        <time>2022-02-17T13:50:39.259Z</time>
      </trkpt>
      <trkpt lat="44.81219" lon="5.14356">
        <ele>595.67</ele>
        <time>2022-02-17T13:50:58.070Z</time>
      </trkpt>
      <trkpt lat="44.81192" lon="5.14375">
        <ele>593.17</ele>
        <time>2022-02-17T13:51:17.148Z</time>
      </trkpt>
      <trkpt lat="44.81168" lon="5.14395">
        <ele>589.96</ele>
        <time>2022-02-17T13:51:36.006Z</time>
      </trkpt>
      <trkpt lat="44.81147" lon="5.14416">
        <ele>587.45</ele>
        <time>2022-02-17T13:51:55.027Z</time>
      </trkpt>
      <trkpt lat="44.81125" lon="5.14437">
        <ele>587.37</ele>
        <time>2022-02-17T13:52:13.842Z</time>
      </trkpt>
      <trkpt lat="44.81111" lon="5.1447">
        <ele>586.24</ele>
        <time>2022-02-17T13:52:33.006Z</time>
      </trkpt>
      <trkpt lat="44.81102" lon="5.14508">
        <ele>583.11</ele>
        <time>2022-02-17T13:52:51.962Z</time>
      </trkpt>
      <trkpt lat="44.81088" lon="5.14544">
        <ele>581.5</ele>
        <time>2022-02-17T13:53:10.060Z</time>
      </trkpt>
      <trkpt lat="44.8107" lon="5.14567">
        <ele>580.61</ele>
        <time>2022-02-17T13:53:29.140Z</time>
      </trkpt>
      <trkpt lat="44.81048" lon="5.14568">
        <ele>583.26</ele>
        <time>2022-02-17T13:53:47.983Z</time>
      </trkpt>
      <trkpt lat="44.81036" lon="5.14566">
        <ele>584.81</ele>
        <time>2022-02-17T13:53:57.210Z</time>
      </trkpt>
      <trkpt lat="44.81006" lon="5.14572">
        <ele>584.37</ele>
        <time>2022-02-17T13:54:15.986Z</time>
      </trkpt>
      <trkpt lat="44.80983" lon="5.1458">
        <ele>582.72</ele>
        <time>2022-02-17T13:54:34.403Z</time>
      </trkpt>
      <trkpt lat="44.8096" lon="5.14583">
        <ele>584.02</ele>
        <time>2022-02-17T13:54:52.885Z</time>
      </trkpt>
      <trkpt lat="44.80932" lon="5.14595">
        <ele>580.18</ele>
        <time>2022-02-17T13:55:12.021Z</time>
      </trkpt>
      <trkpt lat="44.80903" lon="5.14607">
        <ele>577.81</ele>
        <time>2022-02-17T13:55:32.146Z</time>
      </trkpt>
      <trkpt lat="44.80877" lon="5.14618">
        <ele>576.02</ele>
        <time>2022-02-17T13:55:51.665Z</time>
      </trkpt>
      <trkpt lat="44.80852" lon="5.1463">
        <ele>575.49</ele>
        <time>2022-02-17T13:56:10.302Z</time>
      </trkpt>
      <trkpt lat="44.80828" lon="5.14658">
        <ele>567.63</ele>
        <time>2022-02-17T13:56:29.059Z</time>
      </trkpt>
      <trkpt lat="44.80804" lon="5.14676">
        <ele>565.54</ele>
        <time>2022-02-17T13:56:47.967Z</time>
      </trkpt>
      <trkpt lat="44.80785" lon="5.14695">
        <ele>561.57</ele>
        <time>2022-02-17T13:57:06.210Z</time>
      </trkpt>
      <trkpt lat="44.80762" lon="5.14711">
        <ele>560.27</ele>
        <time>2022-02-17T13:57:24.485Z</time>
      </trkpt>
      <trkpt lat="44.80742" lon="5.14721">
        <ele>560.84</ele>
        <time>2022-02-17T13:57:43.166Z</time>
      </trkpt>
      <trkpt lat="44.80719" lon="5.14728">
        <ele>563.37</ele>
        <time>2022-02-17T13:58:03.264Z</time>
      </trkpt>
      <trkpt lat="44.80695" lon="5.14746">
        <ele>560.72</ele>
        <time>2022-02-17T13:58:21.868Z</time>
      </trkpt>
      <trkpt lat="44.80673" lon="5.14769">
        <ele>557.05</ele>
        <time>2022-02-17T13:58:40.230Z</time>
      </trkpt>
      <trkpt lat="44.80654" lon="5.14785">
        <ele>557.72</ele>
        <time>2022-02-17T13:58:58.683Z</time>
      </trkpt>
      <trkpt lat="44.80634" lon="5.14808">
        <ele>559.06</ele>
        <time>2022-02-17T13:59:17.439Z</time>
      </trkpt>
      <trkpt lat="44.80619" lon="5.14836">
        <ele>554.19</ele>
        <time>2022-02-17T13:59:36.798Z</time>
      </trkpt>
      <trkpt lat="44.80602" lon="5.14859">
        <ele>551.23</ele>
        <time>2022-02-17T13:59:55.068Z</time>
      </trkpt>
      <trkpt lat="44.80581" lon="5.14864">
        <ele>555.23</ele>
        <time>2022-02-17T14:00:13.358Z</time>
      </trkpt>
      <trkpt lat="44.80555" lon="5.14872">
        <ele>554.75</ele>
        <time>2022-02-17T14:00:31.661Z</time>
      </trkpt>
      <trkpt lat="44.80545" lon="5.14877">
        <ele>552.78</ele>
        <time>2022-02-17T14:00:40.841Z</time>
      </trkpt>
      <trkpt lat="44.80523" lon="5.1488">
        <ele>551.59</ele>
        <time>2022-02-17T14:00:58.999Z</time>
      </trkpt>
      <trkpt lat="44.80499" lon="5.14882">
        <ele>550.82</ele>
        <time>2022-02-17T14:01:17.744Z</time>
      </trkpt>
      <trkpt lat="44.80474" lon="5.14887">
        <ele>548.21</ele>
        <time>2022-02-17T14:01:36.121Z</time>
      </trkpt>
      <trkpt lat="44.80452" lon="5.14892">
        <ele>545.25</ele>
        <time>2022-02-17T14:01:54.999Z</time>
      </trkpt>
      <trkpt lat="44.80432" lon="5.14906">
        <ele>536.64</ele>
        <time>2022-02-17T14:02:13.847Z</time>
      </trkpt>
      <trkpt lat="44.80407" lon="5.14912">
        <ele>535.21</ele>
        <time>2022-02-17T14:02:32.891Z</time>
      </trkpt>
      <trkpt lat="44.80386" lon="5.14919">
        <ele>535.1</ele>
        <time>2022-02-17T14:02:51.203Z</time>
      </trkpt>
      <trkpt lat="44.80366" lon="5.14929">
        <ele>534.61</ele>
        <time>2022-02-17T14:03:09.368Z</time>
      </trkpt>
      <trkpt lat="44.80344" lon="5.14947">
        <ele>530.11</ele>
        <time>2022-02-17T14:03:28.237Z</time>
      </trkpt>
      <trkpt lat="44.80321" lon="5.1497">
        <ele>521.23</ele>
        <time>2022-02-17T14:03:47.105Z</time>
      </trkpt>
      <trkpt lat="44.80302" lon="5.1497">
        <ele>524.47</ele>
        <time>2022-02-17T14:04:06.261Z</time>
      </trkpt>
      <trkpt lat="44.80279" lon="5.14976">
        <ele>523.75</ele>
        <time>2022-02-17T14:04:24.999Z</time>
      </trkpt>
      <trkpt lat="44.80256" lon="5.14979">
        <ele>522.36</ele>
        <time>2022-02-17T14:04:43.480Z</time>
      </trkpt>
      <trkpt lat="44.80234" lon="5.14978">
        <ele>520.59</ele>
        <time>2022-02-17T14:05:02.029Z</time>
      </trkpt>
      <trkpt lat="44.80207" lon="5.14978">
        <ele>513.83</ele>
        <time>2022-02-17T14:05:20.887Z</time>
      </trkpt>
      <trkpt lat="44.80184" lon="5.14968">
        <ele>512.8</ele>
        <time>2022-02-17T14:05:39.244Z</time>
      </trkpt>
      <trkpt lat="44.80162" lon="5.14956">
        <ele>513.91</ele>
        <time>2022-02-17T14:05:58.140Z</time>
      </trkpt>
      <trkpt lat="44.8014" lon="5.14945">
        <ele>515.32</ele>
        <time>2022-02-17T14:06:17.108Z</time>
      </trkpt>
      <trkpt lat="44.80118" lon="5.14942">
        <ele>512.91</ele>
        <time>2022-02-17T14:06:35.765Z</time>
      </trkpt>
      <trkpt lat="44.80092" lon="5.14941">
        <ele>506.77</ele>
        <time>2022-02-17T14:06:54.443Z</time>
      </trkpt>
      <trkpt lat="44.80073" lon="5.14926">
        <ele>505.98</ele>
        <time>2022-02-17T14:07:13.104Z</time>
      </trkpt>
      <trkpt lat="44.80061" lon="5.14895">
        <ele>511.28</ele>
        <time>2022-02-17T14:07:32.865Z</time>
      </trkpt>
      <trkpt lat="44.80056" lon="5.14881">
        <ele>512.46</ele>
        <time>2022-02-17T14:07:42.000Z</time>
      </trkpt>
      <trkpt lat="44.80044" lon="5.14852">
        <ele>511.92</ele>
        <time>2022-02-17T14:08:01.049Z</time>
      </trkpt>
      <trkpt lat="44.8003" lon="5.14823">
        <ele>507.01</ele>
        <time>2022-02-17T14:08:19.625Z</time>
      </trkpt>
      <trkpt lat="44.80023" lon="5.14794">
        <ele>506.24</ele>
        <time>2022-02-17T14:08:37.985Z</time>
      </trkpt>
      <trkpt lat="44.80011" lon="5.14767">
        <ele>502.95</ele>
        <time>2022-02-17T14:08:56.226Z</time>
      </trkpt>
      <trkpt lat="44.79999" lon="5.14741">
        <ele>500.18</ele>
        <time>2022-02-17T14:09:15.000Z</time>
      </trkpt>
      <trkpt lat="44.79983" lon="5.14715">
        <ele>497.64</ele>
        <time>2022-02-17T14:09:34.722Z</time>
      </trkpt>
      <trkpt lat="44.79968" lon="5.14685">
        <ele>497.02</ele>
        <time>2022-02-17T14:09:53.366Z</time>
      </trkpt>
      <trkpt lat="44.79955" lon="5.14657">
        <ele>495.79</ele>
        <time>2022-02-17T14:10:12.348Z</time>
      </trkpt>
      <trkpt lat="44.79944" lon="5.14627">
        <ele>493.23</ele>
        <time>2022-02-17T14:10:31.683Z</time>
      </trkpt>
      <trkpt lat="44.79932" lon="5.146">
        <ele>490.09</ele>
        <time>2022-02-17T14:10:50.501Z</time>
      </trkpt>
      <trkpt lat="44.79924" lon="5.14568">
        <ele>490.71</ele>
        <time>2022-02-17T14:11:09.000Z</time>
      </trkpt>
      <trkpt lat="44.79915" lon="5.14537">
        <ele>492.33</ele>
        <time>2022-02-17T14:11:28.239Z</time>
      </trkpt>
      <trkpt lat="44.79905" lon="5.1451">
        <ele>492.58</ele>
        <time>2022-02-17T14:11:46.769Z</time>
      </trkpt>
      <trkpt lat="44.7989" lon="5.14483">
        <ele>489.74</ele>
        <time>2022-02-17T14:12:05.926Z</time>
      </trkpt>
      <trkpt lat="44.79879" lon="5.14452">
        <ele>489.13</ele>
        <time>2022-02-17T14:12:24.541Z</time>
      </trkpt>
      <trkpt lat="44.79873" lon="5.14421">
        <ele>489.97</ele>
        <time>2022-02-17T14:12:43.461Z</time>
      </trkpt>
      <trkpt lat="44.79864" lon="5.14394">
        <ele>488.16</ele>
        <time>2022-02-17T14:13:01.820Z</time>
      </trkpt>
      <trkpt lat="44.79859" lon="5.1436">
        <ele>487.65</ele>
        <time>2022-02-17T14:13:20.808Z</time>
      </trkpt>
      <trkpt lat="44.79859" lon="5.14331">
        <ele>488.04</ele>
        <time>2022-02-17T14:13:40.065Z</time>
      </trkpt>
      <trkpt lat="44.79864" lon="5.14298">
        <ele>487.05</ele>
        <time>2022-02-17T14:14:36.580Z</time>
      </trkpt>
      <trkpt lat="44.79858" lon="5.14265">
        <ele>482.04</ele>
        <time>2022-02-17T14:14:54.867Z</time>
      </trkpt>
      <trkpt lat="44.79856" lon="5.14247">
        <ele>480.19</ele>
        <time>2022-02-17T14:15:04.000Z</time>
      </trkpt>
      <trkpt lat="44.79853" lon="5.14212">
        <ele>477.22</ele>
        <time>2022-02-17T14:15:22.888Z</time>
      </trkpt>
      <trkpt lat="44.79849" lon="5.14173">
        <ele>474.96</ele>
        <time>2022-02-17T14:15:41.564Z</time>
      </trkpt>
      <trkpt lat="44.79834" lon="5.14143">
        <ele>473.86</ele>
        <time>2022-02-17T14:16:00.619Z</time>
      </trkpt>
      <trkpt lat="44.7981" lon="5.1413">
        <ele>473.11</ele>
        <time>2022-02-17T14:16:19.787Z</time>
      </trkpt>
      <trkpt lat="44.79783" lon="5.14136">
        <ele>471.97</ele>
        <time>2022-02-17T14:16:38.910Z</time>
      </trkpt>
      <trkpt lat="44.79759" lon="5.14127">
        <ele>471.5</ele>
        <time>2022-02-17T14:16:57.421Z</time>
      </trkpt>
      <trkpt lat="44.79739" lon="5.14111">
        <ele>470.59</ele>
        <time>2022-02-17T14:17:15.959Z</time>
      </trkpt>
      <trkpt lat="44.79722" lon="5.14094">
        <ele>469.23</ele>
        <time>2022-02-17T14:17:34.426Z</time>
      </trkpt>
      <trkpt lat="44.79702" lon="5.14076">
        <ele>467.2</ele>
        <time>2022-02-17T14:17:52.946Z</time>
      </trkpt>
      <trkpt lat="44.79683" lon="5.14062">
        <ele>465.05</ele>
        <time>2022-02-17T14:18:12.025Z</time>
      </trkpt>
      <trkpt lat="44.79665" lon="5.14043">
        <ele>463.33</ele>
        <time>2022-02-17T14:18:31.082Z</time>
      </trkpt>
      <trkpt lat="44.79646" lon="5.14025">
        <ele>461.36</ele>
        <time>2022-02-17T14:18:49.999Z</time>
      </trkpt>
      <trkpt lat="44.79625" lon="5.14013">
        <ele>458.67</ele>
        <time>2022-02-17T14:19:08.884Z</time>
      </trkpt>
      <trkpt lat="44.79607" lon="5.13999">
        <ele>456.66</ele>
        <time>2022-02-17T14:19:28.084Z</time>
      </trkpt>
      <trkpt lat="44.79583" lon="5.13984">
        <ele>455.02</ele>
        <time>2022-02-17T14:19:46.520Z</time>
      </trkpt>
      <trkpt lat="44.7956" lon="5.13971">
        <ele>453.52</ele>
        <time>2022-02-17T14:20:05.150Z</time>
      </trkpt>
      <trkpt lat="44.79543" lon="5.13947">
        <ele>454.45</ele>
        <time>2022-02-17T14:20:23.905Z</time>
      </trkpt>
      <trkpt lat="44.7954" lon="5.13912">
        <ele>458.6</ele>
        <time>2022-02-17T14:20:42.844Z</time>
      </trkpt>
      <trkpt lat="44.79529" lon="5.1389">
        <ele>460.29</ele>
        <time>2022-02-17T14:21:01.282Z</time>
      </trkpt>
      <trkpt lat="44.7951" lon="5.13905">
        <ele>455.9</ele>
        <time>2022-02-17T14:21:20.140Z</time>
      </trkpt>
      <trkpt lat="44.79492" lon="5.13915">
        <ele>453.33</ele>
        <time>2022-02-17T14:21:38.201Z</time>
      </trkpt>
      <trkpt lat="44.79481" lon="5.13926">
        <ele>451.98</ele>
        <time>2022-02-17T14:21:47.265Z</time>
      </trkpt>
      <trkpt lat="44.79462" lon="5.13946">
        <ele>449.95</ele>
        <time>2022-02-17T14:22:06.223Z</time>
      </trkpt>
      <trkpt lat="44.7944" lon="5.13956">
        <ele>449.77</ele>
        <time>2022-02-17T14:22:24.822Z</time>
      </trkpt>
      <trkpt lat="44.79419" lon="5.13956">
        <ele>451.27</ele>
        <time>2022-02-17T14:22:43.701Z</time>
      </trkpt>
      <trkpt lat="44.79393" lon="5.13957">
        <ele>451.76</ele>
        <time>2022-02-17T14:23:02.440Z</time>
      </trkpt>
      <trkpt lat="44.79368" lon="5.13957">
        <ele>452.54</ele>
        <time>2022-02-17T14:23:20.999Z</time>
      </trkpt>
      <trkpt lat="44.79348" lon="5.13955">
        <ele>452.99</ele>
        <time>2022-02-17T14:23:39.808Z</time>
      </trkpt>
      <trkpt lat="44.79327" lon="5.13955">
        <ele>452.66</ele>
        <time>2022-02-17T14:23:59.109Z</time>
      </trkpt>
      <trkpt lat="44.79303" lon="5.13952">
        <ele>451.85</ele>
        <time>2022-02-17T14:24:17.165Z</time>
      </trkpt>
      <trkpt lat="44.79282" lon="5.13947">
        <ele>450.83</ele>
        <time>2022-02-17T14:24:36.066Z</time>
      </trkpt>
      <trkpt lat="44.79262" lon="5.13945">
        <ele>449.68</ele>
        <time>2022-02-17T14:24:54.487Z</time>
      </trkpt>
      <trkpt lat="44.79248" lon="5.13958">
        <ele>447.94</ele>
        <time>2022-02-17T14:29:08.000Z</time>
      </trkpt>
    </trkseg>
  </trk>
</gpx>